[000:160] [2025-06-17 08:24:44 +0000.
671154][2662] Log to
file:/storage/emulated/0/voip-data/[Link]/[Link] start time:2025-06-
17 08:24:44 +0000
[000:160] [2025-06-17 08:24:44 +0000.671312][2662] set AppID=50011 old AppID=-1
[000:160] [2025-06-17 08:24:44 +0000.671373][2662] Init the android object with
jvm:0xb4000074c9221380 env:0x74ab3ab8c0 context:0x7454de42e8
[000:160] [2025-06-17 08:24:44 +0000.671495][2662] SetAndroidMediaCodecObjects
time:411578829 enter.
[000:160] [2025-06-17 08:24:44 +0000.671585][2662] SetAndroidMediaCodecObjects
leave. expire time = 0 ms
[000:160] [2025-06-17 08:24:44 +0000.671667][2662] SetAndroidMediaCodecObjects
time:411578829 enter.
[000:161] [2025-06-17 08:24:44 +0000.671739][2662] SetAndroidMediaCodecObjects:
SetAndroidMediaCodecObjects:: jvm :0xb4000074c9221380
[000:161] [2025-06-17 08:24:44 +0000.671812][2662] SetAndroidMediaCodecObjects:
SetAndroidMediaCodecObjects success g_jvm_:0xb4000074c9221380 address:0x73fc8b4760
[000:161] [2025-06-17 08:24:44 +0000.671897][2662] SetAndroidMediaCodecObjects:
SetAndroidMediaCodecObjects success g_jvm_encoder_:0xb4000074c9221380
address:0x73fc8b4760
[000:161] [2025-06-17 08:24:44 +0000.671969][2662] SetAndroidMediaCodecObjects
leave. expire time = 1 ms
[000:161] [2025-06-17 08:24:44 +0000.672049][2662] Set the android objects with
jvm:0xb4000074c9221380 env:0x74ab3ab8c0 context:0x7454de42e8
[000:161] [2025-06-17 08:24:44 +0000.672130][2662] audio jni debug :manager
SetAndroidAudioDeviceObjects env:0x74ab3ab8c0
[000:161] [2025-06-17 08:24:44 +0000.672196][2662] SystemUtil Init done
[000:170] [2025-06-17 08:24:44 +0000.680832][2662]
Java_com_xiaomi_recordmediaprocess_MediaEffectCamera_ConstructMediaEffectCameraJni:
[000:170] [2025-06-17 08:24:44 +0000.681150][2662] MediaFilterCamera
[000:170] [2025-06-17 08:24:44 +0000.681284][2662] RecordingSessionInternalSimple:
Create session internal:720 X 1280 fps:30
[000:170] [2025-06-17 08:24:44 +0000.681503][2662] createSessionInternal: create
session with video size:720 X 1280 fps:30 bitrate:14680064
[000:170] [2025-06-17 08:24:44 +0000.681569][2f13] Error([Link]): Set the
pthread name failed with error:34 name:Thread 0x0x74263ef540
[000:170] [2025-06-17 08:24:44 +0000.681603][2662] Recording session using default
bitrate support by app:14680064
[000:171] [2025-06-17 08:24:44 +0000.682225][2f13] setAudioChannelCount_w:
RecordingSessionInternalSimple:set the audio channel count:2
[000:171] [2025-06-17 08:24:44 +0000.682403][2662] setAudioSampleRate:
RecordingSessionInternalSimple:set the audio bitrate:44100
[000:173] [2025-06-17 08:24:44 +0000.683812][2662] Error([Link]): Open the file
failed. error:2
[000:173] [2025-06-17 08:24:44 +0000.683916][2662]
Error(key_value_pair_store.cc:130): load the data failed from: voip_config.ini
[000:173] [2025-06-17 08:24:44 +0000.684006][2662] The device model: 220333qag
usingSoftwareAEC value: 0
[000:178] [2025-06-17 08:24:44 +0000.688846][2662] Error([Link]): Open the file
failed. error:2
[000:178] [2025-06-17 08:24:44 +0000.688981][2662]
Error(key_value_pair_store.cc:130): load the data failed from:
/storage/emulated/0/voip-data/[Link]/voip_config.ini
[000:178] [2025-06-17 08:24:44 +0000.689074][2662] The device model: 220333qag
usingHardwareAEC value: 0
[000:178] [2025-06-17 08:24:44 +0000.689192][2662] The machine device: 220333qag
usingHardwareAEC value: 0
[000:178] [2025-06-17 08:24:44 +0000.689253][2662] Using Default AEC type: software
AEC
[000:180] [2025-06-17 08:24:44 +0000.691506][2662] The device model: 220333qag enum
value: 0
[000:181] [2025-06-17 08:24:44 +0000.692657][2662] GetMachineModel is 220333QAG
[000:182] [2025-06-17 08:24:44 +0000.692781][2662] GetMachineInfo: 220333QAG
[000:182] [2025-06-17 08:24:44 +0000.692867][2662] Construct BeautifyReader
begin...
[000:182] [2025-06-17 08:24:44 +0000.692931][2662] dumpStickerRgba:0
dumpStickerYuv:0
[000:182] [2025-06-17 08:24:44 +0000.692986][2662] Construct BeautifyReader done.
[000:188] [2025-06-17 08:24:44 +0000.699555][2662] Error([Link]): Open the file
failed. error:2
[000:189] [2025-06-17 08:24:44 +0000.699709][2662]
Error(key_value_pair_store.cc:130): load the data failed from:
/storage/emulated/0/voip-data/[Link]/support_resolution.txt
[000:189] [2025-06-17 08:24:44 +0000.699912][2662] AppDeviceManagerStartCamera::The
result of start thread is: 1 micOn:0
[000:189] [2025-06-17 08:24:44 +0000.699990][2662] AppDeviceManager telnet server
for statistics started......
[000:189] [2025-06-17 08:24:44 +0000.699977][2f16] Error([Link]): Set the
pthread name failed with error:34 name:Thread 0x0x74b86b02a0
[000:189] [2025-06-17 08:24:44 +0000.700655][2662] CpuOverloadDetect time:411578858
enter.
[000:190] [2025-06-17 08:24:44 +0000.700851][2662] CpuOverloadDetect leave. expire
time = 1 ms
[000:190] [2025-06-17 08:24:44 +0000.700903][2f17] Error([Link]): Set the
pthread name failed with error:34 name:Thread 0x0x74b86b9f00
[000:191] [2025-06-17 08:24:44 +0000.702406][2662] AppDeviceMana
GetOpenslVoiceMode before get setting: 1
[000:191] [2025-06-17 08:24:44 +0000.702491][2662] AppDeviceMana
GetOpenslVoiceMode after get setting: 1
[000:203] [2025-06-17 08:24:44 +0000.713748][2662] AudioManagerAndroid
getProperty:[Link].OUTPUT_SAMPLE_RATE
[000:203] [2025-06-17 08:24:44 +0000.714551][2662] AudioManagerAndroid
getProperty:[Link].OUTPUT_FRAMES_PER_BUFFER
[000:204] [2025-06-17 08:24:44 +0000.715601][2662] CreatePlatformSpecificObjects:
[000:205] [2025-06-17 08:24:44 +0000.715698][2662] audio device use opensle input
and opensl output
[000:205] [2025-06-17 08:24:44 +0000.715806][2662] Create OpenSLES output module
with java VM support.
[000:205] [2025-06-17 08:24:44 +0000.716115][2662] AudioManagerAndroid
getProperty:[Link].OUTPUT_SAMPLE_RATE
[000:205] [2025-06-17 08:24:44 +0000.716413][2662] AudioManagerAndroid
getProperty:[Link].OUTPUT_FRAMES_PER_BUFFER
[000:206] [2025-06-17 08:24:44 +0000.716809][2662] Create OpenSLES output module
with buffer num:1
[000:206] [2025-06-17 08:24:44 +0000.717115][2662] AudioManagerAndroid
getProperty:[Link].OUTPUT_SAMPLE_RATE
[000:206] [2025-06-17 08:24:44 +0000.717404][2662] AudioManagerAndroid
getProperty:[Link].OUTPUT_FRAMES_PER_BUFFER
[000:207] [2025-06-17 08:24:44 +0000.717745][2662] Create OpenSLES input module
with java VM support.
[000:207] [2025-06-17 08:24:44 +0000.717841][2662] Create OpenSLES input module
with buffer num:1
[000:207] [2025-06-17 08:24:44 +0000.717948][2662] Error([Link]): Init the
output and input for audio device template.
[000:207] [2025-06-17 08:24:44 +0000.718023][2662] Init the output device.
[000:207] [2025-06-17 08:24:44 +0000.718092][2662] Init the opensl input.
[000:207] [2025-06-17 08:24:44 +0000.718169][2662] AppDeviceManager get setting
samplerate: 0
[000:208] [2025-06-17 08:24:44 +0000.719027][2662] The device model: 220333qag enum
value: 0
[000:209] [2025-06-17 08:24:44 +0000.720432][2662] The device model: 220333qag enum
value: 0
[000:209] [2025-06-17 08:24:44 +0000.720518][2662] Set the sample rate to be:48000
[000:209] [2025-06-17 08:24:44 +0000.720593][2662] Enable the recording stereo:0
[000:209] [2025-06-17 08:24:44 +0000.720664][2662] Set the playout as stereo:1
[000:210] [2025-06-17 08:24:44 +0000.720734][2662] Init the microphone.
[000:210] [2025-06-17 08:24:44 +0000.721452][2662] Update the recording sample rate
to be: 48000
[000:210] [2025-06-17 08:24:44 +0000.721551][2662] Init the speaker.
[000:210] [2025-06-17 08:24:44 +0000.721663][2662] Low latency buffer size:144 low
sample rate:48000
[000:211] [2025-06-17 08:24:44 +0000.722306][2662] Using 1 x 10ms for an audio
frame.
[000:218] [2025-06-17 08:24:44 +0000.728850][2662] Error(splitting_filter.cc:26):
Splitting filter only support two or three bands now.
[000:218] [2025-06-17 08:24:44 +0000.729067][2662] Error(splitting_filter.cc:26):
Splitting filter only support two or three bands now.
[000:218] [2025-06-17 08:24:44 +0000.729209][2662] Error(splitting_filter.cc:26):
Splitting filter only support two or three bands now.
[000:227] [2025-06-17 08:24:44 +0000.738411][2662] The device model:220333qag
[000:227] [2025-06-17 08:24:44 +0000.738543][2662] speaker output factor:100
defaultFactor: 100
[000:227] [2025-06-17 08:24:44 +0000.738633][2662] headset output factor:100
defaultFactor: 100
[000:228] [2025-06-17 08:24:44 +0000.739538][2662] AppDeviceManagerStart finished.
[000:228] [2025-06-17 08:24:44 +0000.739623][2662] AppDeviceManagerStartMic::mic
status is off
[000:229] [2025-06-17 08:24:44 +0000.739731][2662] AppDeviceManagerStartMic update
aec type: 2
[000:229] [2025-06-17 08:24:44 +0000.739807][2662] AppDeviceManagerStartMic update
voiceChangeMode: 4
[000:229] [2025-06-17 08:24:44 +0000.739879][2662]
AudioDeviceDataHandler::setVoiceChangeMode, mode : 4
[000:229] [2025-06-17 08:24:44 +0000.739948][2662]
AudioDeviceDataHandler::StartMicProcess
[000:229] [2025-06-17 08:24:44 +0000.740164][2662] Try to start webrtc recording
device.
[000:229] [2025-06-17 08:24:44 +0000.740241][2662] StartRecording. threadID:9826
[000:229] [2025-06-17 08:24:44 +0000.740215][2f18] Error([Link]): Set the
pthread name failed with error:34 name:AudioDeviceDataHandler gapProcessThread
[000:229] [2025-06-17 08:24:44 +0000.740401][2f18] haveEnoughProcessedData
[Link]: 0
[000:230] [2025-06-17 08:24:44 +0000.741046][2662] The machine model:220333QAG
[000:230] [2025-06-17 08:24:44 +0000.741164][2662] default mode: Set the recording
mode to voice communication to enable HW AEC .
[000:230] [2025-06-17 08:24:44 +0000.741236][2662] Set the recording mode before
getSetting: 4
[000:230] [2025-06-17 08:24:44 +0000.741314][2662] Set the recording mode after
getSetting: 1
[000:323] [2025-06-17 08:24:44 +0000.834336][2662] StartRecording finished.
[000:323] [2025-06-17 08:24:44 +0000.834451][2662] audio: start the audio mic
checker timer.
[000:325] [2025-06-17 08:24:44 +0000.835783][2662] machine model :redmi
[000:325] [2025-06-17 08:24:44 +0000.835884][2662] Support this machine
model :redmi
[000:325] [2025-06-17 08:24:44 +0000.836136][2662] global inited! current sdk
version: 12-14-d8558ab
[000:420] [2025-06-17 08:24:44 +0000.930803][2f19] webrtc device:Handle the data
from samplesPerSec recording sample rate:48000 nSamples:480 nBytesPerSample:#
nChannels:#
[000:420] [2025-06-17 08:24:44 +0000.931005][2f19] _deviceSampleRate:48000
[000:421] [2025-06-17 08:24:44 +0000.932445][2f18] Run AGC when audioType = 0
[000:421] [2025-06-17 08:24:44 +0000.932651][2f18]
AudioDeviceDataHandler::MixAndSendOutFrame
[001:304] [2025-06-17 08:24:45 +0000.815413][2c62]
Java_com_xiaomi_recordmediaprocess_OpenGlRender_SetCurrentGLContextJni:
[001:308] [2025-06-17 08:24:45 +0000.819193][2f14] MediaFilterCamera, recording
file context:0x74ab3f5c00 input texture:4
[001:309] [2025-06-17 08:24:45 +0000.820241][2f14] GLESContext:
[001:313] [2025-06-17 08:24:45 +0000.824217][2f14] The result of eglGetDisplay is:
0x1
[001:317] [2025-06-17 08:24:45 +0000.828277][2f14] The result of creation:
0x74204e5c80
[001:318] [2025-06-17 08:24:45 +0000.828968][2f14] The result of
eglCreatePbufferSurface is: 0x74204e5d80
[001:318] [2025-06-17 08:24:45 +0000.829532][2c62]
Java_com_xiaomi_recordmediaprocess_OpenGlRender_SetCurrentGLContextJni:
g_eglcontext: 0x74ab3f5c00 input_texture: 4
[002:009] [2025-06-17 08:24:46 +0000.519948][2f18] haveEnoughProcessedData
[Link]: 0
[002:423] [2025-06-17 08:24:46 +0000.933766][2f18] Run AGC when audioType = 0
[002:622] [2025-06-17 08:24:47 +0000.132735][263e] SetOrientation:
MediaFilterCamera:: SetOrientation: 90
[002:622] [2025-06-17 08:24:47 +0000.132963][263e]
Java_com_xiaomi_recordmediaprocess_MediaEffectCamera_SetOrientationJni: media
filter camera orientation: 90
[002:627] [2025-06-17 08:24:47 +0000.137782][263e]
Java_com_xiaomi_recordmediaprocess_MediaEffectCamera_StartRecordingJni:
[002:627] [2025-06-17 08:24:47 +0000.138147][2f14] operator() time:411581296
enter.
[002:629] [2025-06-17 08:24:47 +0000.139800][2f14] MediaFilterCamera, recording
file context:0x74ab3f5c00 input texture:4
[002:634] [2025-06-17 08:24:47 +0000.145579][2f14] MicSource: Mic source
created:10x742bcbfd00
[002:636] [2025-06-17 08:24:47 +0000.146792][2f14] received external audio stream
[002:636] [2025-06-17 08:24:47 +0000.146908][2f14] alloc thread: 0x7417d5c480
name:worker0 thread id:497821965440 to Mic_source
[002:636] [2025-06-17 08:24:47 +0000.147011][2f14] audio: start the audio sender
thread.
[002:636] [2025-06-17 08:24:47 +0000.147173][2f14] construct OpenGLRenderProgram
0x74207eb598
[002:636] [2025-06-17 08:24:47 +0000.147259][2f14] CropFilter::SetOrientation
orientation: 90
[002:637] [2025-06-17 08:24:47 +0000.147856][2f14] filter: filter pipeline
construtc this: 0x742052c0c0
[002:637] [2025-06-17 08:24:47 +0000.147946][2f14] filter: filter pipeline2 update
pattern: 1
[002:643] [2025-06-17 08:24:47 +0000.154441][2f18] On audio frame the broadcast
with timestamp:411581312 samples:480. (1000 frame for one log)
[002:645] [2025-06-17 08:24:47 +0000.156014][2f14] CameraSource::source_id_:1
[002:645] [2025-06-17 08:24:47 +0000.156159][2f14] RecordAudioSource::source_id_:2
[002:645] [2025-06-17 08:24:47 +0000.156620][2f14] BindInputFilter 0x7417d5dc40
this 0x74207eb7c0
[002:646] [2025-06-17 08:24:47 +0000.156739][2f14] BindInputFilter 0x7417d5e0d8
this 0x7417d5e250
[002:646] [2025-06-17 08:24:47 +0000.156838][2f14] BindInputFilter 0x74207eb7c0
this 0x742052c160
[002:646] [2025-06-17 08:24:47 +0000.157349][2f42] Get data in mic source, which
has byte length:1764micAudioStream->length():10
[002:651] [2025-06-17 08:24:47 +0000.161766][2f14] setParamentForFilters:
speed:1.000000
[002:651] [2025-06-17 08:24:47 +0000.162015][2f14] SetParamForFilter:
AF_SpeedFilter params:, speed_ 1
[002:651] [2025-06-17 08:24:47 +0000.162099][2f14] SetParamForFilter time:411581320
enter.
[002:651] [2025-06-17 08:24:47 +0000.162162][2f14] Error(crop_filter.cc:263):
SetParamForFilter: Not found modetype param, using default modetype citytravel!
[002:651] [2025-06-17 08:24:47 +0000.162235][2f14] SetParamForFilter: Params video
index is: 0
[002:651] [2025-06-17 08:24:47 +0000.162294][2f14] Error(crop_filter.cc:283):
SetParamForFilter: PhotoFilter params, donnot find index
[002:651] [2025-06-17 08:24:47 +0000.162351][2f14] Error(crop_filter.cc:291):
SetParamForFilter: PhotoFilter params, donnot find intensity
[002:651] [2025-06-17 08:24:47 +0000.162407][2f14] crop filter mode tpye:
citytravelvideo index:0
[002:653] [2025-06-17 08:24:47 +0000.164227][2f42] The output timestamp from audio
mixer change:411581312
[002:653] [2025-06-17 08:24:47 +0000.164403][2f42] Error([Link]): There
is no output connect to mic source, discard the frame.
[002:672] [2025-06-17 08:24:47 +0000.183401][2f14]
Warning(parse_template_json.cc:45): json parament no found the parament
[002:672] [2025-06-17 08:24:47 +0000.183561][2f14]
Warning(parse_template_json.cc:45): json parament no found the parament
[002:672] [2025-06-17 08:24:47 +0000.183620][2f14]
Warning(parse_template_json.cc:45): json parament no found the parament
[002:673] [2025-06-17 08:24:47 +0000.183676][2f14]
Warning(parse_template_json.cc:45): json parament no found the parament
[002:674] [2025-06-17 08:24:47 +0000.184890][2f14]
Warning(parse_template_json.cc:45): json parament no found the parament
[002:674] [2025-06-17 08:24:47 +0000.184960][2f14]
Warning(parse_template_json.cc:45): json parament no found the parament
[002:674] [2025-06-17 08:24:47 +0000.185016][2f14]
Warning(parse_template_json.cc:45): json parament no found the parament
[002:674] [2025-06-17 08:24:47 +0000.185071][2f14]
Warning(parse_template_json.cc:81): json parament no found the parament
[002:674] [2025-06-17 08:24:47 +0000.185124][2f14]
Warning(parse_template_json.cc:81): json parament no found the parament
[002:674] [2025-06-17 08:24:47 +0000.185178][2f14]
Warning(parse_template_json.cc:67): json parament no found the parament
[002:674] [2025-06-17 08:24:47 +0000.185232][2f14]
Warning(parse_template_json.cc:93): json parament no found the duration
[002:674] [2025-06-17 08:24:47 +0000.185317][2f14] SetParamForFilter leave. expire
time = 23 ms
[002:677] [2025-06-17 08:24:47 +0000.188077][2f14] OnOutputSizeChanged width 1280
height 720
[002:677] [2025-06-17 08:24:47 +0000.188178][2f14] OpenGLFrameBuffer: width:1280
height:720
[002:677] [2025-06-17 08:24:47 +0000.188247][2f14] OpenGLFrameBuffer: width:1280
height:720
[002:677] [2025-06-17 08:24:47 +0000.188304][2f14] OpenGLFrameBuffer: width:1280
height:720
[002:677] [2025-06-17 08:24:47 +0000.188358][2f14] OpenGLFrameBuffer: width:1280
height:720
[002:677] [2025-06-17 08:24:47 +0000.188411][2f14] OpenGLFrameBuffer: width:1280
height:720
[002:677] [2025-06-17 08:24:47 +0000.188512][2f14] OpenGLFrameBuffer: width:1280
height:720
[002:677] [2025-06-17 08:24:47 +0000.188565][2f14] construct TrivalImageDrawer
0x742049d600
[002:677] [2025-06-17 08:24:47 +0000.188626][2f14] GPUImageProcessing construct:
frame resolution is: 1280 X 720 drawer 0x742049d600 context 0x74ab883cc0
[002:678] [2025-06-17 08:24:47 +0000.188685][2f14] setupGLES:
[002:680] [2025-06-17 08:24:47 +0000.191420][2f14] OpenGLRenderProgram::Initialize.
[002:680] [2025-06-17 08:24:47 +0000.191669][2f14] The version of the OpenGL:
OpenGL ES GLSL ES 3.20
[002:681] [2025-06-17 08:24:47 +0000.191739][2f14] The extension of the OpenGL:
GL_OES_EGL_image GL_OES_EGL_image_external GL_OES_EGL_sync GL_OES_vertex_half_float
GL_OES_framebuffer_object GL_OES_rgb8_rgba8 GL_OES_compressed_ETC1_RGB8_texture
GL_AMD_compressed_ATC_texture GL_KHR_texture_compression_astc_ldr
GL_OES_texture_npot GL_EXT_texture_filter_anisotropic
GL_EXT_texture_format_BGRA8888 GL_EXT_read_format_bgra GL_OES_texture_3D
GL_EXT_color_buffer_float GL_EXT_color_buffer_half_float GL_QCOM_alpha_test
GL_OES_depth24 GL_OES_packed_depth_stencil GL_OES_depth_texture
GL_OES_depth_texture_cube_map GL_EXT_sRGB GL_OES_texture_float
GL_OES_texture_float_linear GL_OES_texture_half_float
GL_OES_texture_half_float_linear GL_EXT_texture_type_2_10_10_10_REV
GL_EXT_texture_sRGB_decode GL_EXT_texture_format_sRGB_override
GL_OES_element_index_uint GL_EXT_copy_image GL_EXT_geometry_shader
GL_EXT_tessellation_shader GL_OES_texture_stencil8 GL_EXT_shader_io_blocks
GL_OES_shader_image_atomic GL_OES_sample_variables GL_EXT_texture_border_clamp
GL_EXT_EGL_image_external_wrap_modes GL_EXT_multisampled_render_to_texture
GL_EXT_multisampled_render_to_texture2 GL_OES_shader_multisample_interpolation
GL_EXT_texture_cube_map_array GL_EXT_draw_buffers_indexed GL_EXT_gpu_shader5
GL_EXT_robustness GL_EXT_texture_buffer GL_EXT_shader_framebuffer_fetch
GL_ARM_shader_framebuffer_fetch_depth_stencil
GL_OES_texture_storage_multisample_2d_array GL_OES_sample_shading
GL_OES_get_program_binary GL_EXT_debug_label GL_KHR_blend_equation_advanced
GL_KHR_blend_equation_advanced_coherent GL_QCOM_tiled_rendering
GL_ANDROID_extension_pack_es31a GL_EXT_primitive_bounding_box
GL_OES_standard_derivatives GL_OES_vertex_array_object GL_EXT_disjoint_timer_query
GL_KHR_debug GL_EXT_YUV_target GL_EXT_sRGB_write_control GL_EXT_texture_norm16
GL_EXT_discard_framebuffer GL_OES_surfaceless_context GL_OVR_multiview
GL_OVR_multiview2 GL_EXT_texture_sRGB_R8 GL_KHR_no_error GL_EXT_debug_marker
GL_OES_EGL_image_external_essl3 GL_OVR_multiview_multisampled_render_to_texture
GL_EXT_buffer_storage GL_EXT_external_buffer GL_EXT_blit_framebuffer_params
GL_EXT_clip_cull_distance GL_EXT_protected_textures
GL_EXT_shader_non_constant_global_initializers GL_QCOM_texture_foveated
GL_QCOM_texture_foveated_subsampled_layout
GL_QCOM_shader_framebuffer_fetch_noncoherent GL_QCOM_shader_framebuffer_fetch_rate
GL_EXT_memory_object GL_EXT_memory_object_fd GL_EXT_EGL_image_array
GL_NV_shader_noperspective_interpolation GL_KHR_robust_buffer_access_behavior
GL_EXT_EGL_image_storage GL_EXT_blend_func_extended GL_EXT_clip_control
GL_OES_texture_view GL_EXT_fragment_invocation_density
GL_QCOM_validate_shader_binary GL_QCOM_YUV_texture_gather
[002:681] [2025-06-17 08:24:47 +0000.191849][2f14] Init open gl render:
0x74207eb598
[002:681] [2025-06-17 08:24:47 +0000.191937][2f14] Fragement shader path:
[002:681] [2025-06-17 08:24:47 +0000.192010][2f14] Fragement shader path:
[002:681] [2025-06-17 08:24:47 +0000.192102][2f14] create opengl program object.
[002:681] [2025-06-17 08:24:47 +0000.192159][2f14] create shader: vertex
[002:703] [2025-06-17 08:24:47 +0000.214214][2f14] create shader: fragment
[002:827] [2025-06-17 08:24:47 +0000.338599][2f14] Have not extra filter filename!
[002:828] [2025-06-17 08:24:47 +0000.338789][2f14] Error(crop_filter.cc:368): Init
the extra yuv texture failed.
[002:828] [2025-06-17 08:24:47 +0000.338862][2f14] OpenGLRenderProgram::Initialize
success.
[002:828] [2025-06-17 08:24:47 +0000.338991][2f14] Setup the OpenGL result:1
[002:830] [2025-06-17 08:24:47 +0000.341290][2f13] start recording, file
path:/data/user/0/[Link]/no_backup/milive//record_video_411581497.mp4
[002:830] [2025-06-17 08:24:47 +0000.341642][2f13] MP4 session params: fps:30
width:1280 height:720 file
name:/data/user/0/[Link]/no_backup/milive//record_video_411581497.mp4
fileFd: -1 audio_timescale:44100 video_timescale:90000
[002:831] [2025-06-17 08:24:47 +0000.342102][2f13] MP4Recorder AddDisplayRotate:0
c:1 s:0 matrix[0]:256 matrix[1]:0 matrix[2]:0 matrix[3]:0 matrix[4]:256
matrix[8]:64
[002:831] [2025-06-17 08:24:47 +0000.342204][2f13] MP4 recorder params: fps:30
width:1280 height:720 audio time scale:44100 video time scale:90000 file
name:/data/user/0/[Link]/no_backup/milive//record_video_411581497.mp4
fileFD: -1
[002:831] [2025-06-17 08:24:47 +0000.342185][2f4a] Error([Link]): Set the
pthread name failed with error:34 name:Thread 0x0x7426272898
[002:833] [2025-06-17 08:24:47 +0000.344076][2f13] MP4
file:/data/user/0/[Link]/no_backup/milive//record_video_411581497.mp4
is opened successfully
[002:833] [2025-06-17 08:24:47 +0000.344205][2f13] setupMediaProcessers:
[002:833] [2025-06-17 08:24:47 +0000.344294][2f13]
RecordingSessionInternalSimple:setup media processers.
[002:833] [2025-06-17 08:24:47 +0000.344359][2f13] construct AAC encoder
[002:836] [2025-06-17 08:24:47 +0000.346838][2f13] H264Encoder creating:
superfast011818
[002:836] [2025-06-17 08:24:47 +0000.346977][2f13] H264Encode::H264Encoder creating
with width:1280 height:720 m_fps:30 m_bitrate:14680064 useHWEncoder:0
[002:837] [2025-06-17 08:24:47 +0000.348264][2f13] H264Encode::GetMachineModel is
220333QAG
[002:837] [2025-06-17 08:24:47 +0000.348356][2f13] H264Encoder machine_mode
is:220333QAG
[002:837] [2025-06-17 08:24:47 +0000.348425][2f13] H264Encode::machine size :9
machine_mode:220333QAG
[002:837] [2025-06-17 08:24:47 +0000.348485][2f13] H264Encode::machine array
size :22 machine_mode:220333QAG
[002:837] [2025-06-17 08:24:47 +0000.348540][2f13] H264Encode::current machine
is :220333QAG auto check hw codec decide to use hw codec
[002:837] [2025-06-17 08:24:47 +0000.348596][2f13] setupCompressionSession:
[002:837] [2025-06-17 08:24:47 +0000.348651][2f13] H264Encode::creating hareware
Encoder
[002:838] [2025-06-17 08:24:47 +0000.348704][2f13] AndroidHwAvcEncoder
time:411581507 enter.
[002:838] [2025-06-17 08:24:47 +0000.349030][2f13] AndroidHwAvcEncoder:
g_jvm_encoder_ :0xb4000074c9221380 address:0x73fc8b4760
[002:839] [2025-06-17 08:24:47 +0000.350034][2f13] AndroidMediaCodecVideoEncoder
construct jni_init_jfields: 1, 1
[002:839] [2025-06-17 08:24:47 +0000.350130][2f13] The video avc hw codec address
is 0x741bd1b5f8
[002:839] [2025-06-17 08:24:47 +0000.350326][2f13] AndroidHwAvcEncoder leave.
expire time = 1 ms
[002:839] [2025-06-17 08:24:47 +0000.350404][2f13] RegisterEncodeCompleteCallback
time:411581508 enter.
[002:840] [2025-06-17 08:24:47 +0000.350692][2f13] RegisterEncodeCompleteCallback
leave. expire time = 1 ms
[002:840] [2025-06-17 08:24:47 +0000.350788][2f13] InitEncode time:411581509
enter.
[002:840] [2025-06-17 08:24:47 +0000.351549][2f13] InitEncode:
MediaCodecVideoEncoder::Release _inited:1
[002:840] [2025-06-17 08:24:47 +0000.351660][2f13] Create time:411581509 enter.
[002:841] [2025-06-17 08:24:47 +0000.351726][2f13] H264Encoder encoderCreate
width:1280 height:720 fps:30 bitrate:14680064 usingVbrMode:1
[002:841] [2025-06-17 08:24:47 +0000.351799][2f13]
AndroidMediaCodecVideoEncoder::initEncoder, codec: 0, width: 1280, height: 720,
framerate: 30, bitrate: 14680064, usingVbr: 1, VideoEncoder: 0x741bcb4bc0
[002:918] [2025-06-17 08:24:47 +0000.429167][2f13]
supported_type:image/[Link]
[002:918] [2025-06-17 08:24:47 +0000.429386][2f13] supported_type:video/avc
[002:918] [2025-06-17 08:24:47 +0000.429452][2f13] name:[Link]
mime:video/avc
[002:918] [2025-06-17 08:24:47 +0000.429588][2f13] hwCodecPrefix :[Link].
[002:918] [2025-06-17 08:24:47 +0000.429711][2f13] Found target codecer
[Link]
[002:919] [2025-06-17 08:24:47 +0000.429830][2f13] mediacodec_createCodecByName
time:411581588 enter.
[002:919] [2025-06-17 08:24:47 +0000.429892][2f13] WrapAndroidMediaCodec
time:411581588 enter.
[002:920] [2025-06-17 08:24:47 +0000.431286][2f13] WrapAndroidMediaCodec leave.
expire time = 1 ms
[003:020] [2025-06-17 08:24:47 +0000.531325][2f13] mediacodec_createCodecByName
leave. expire time = 101 ms
[003:020] [2025-06-17 08:24:47 +0000.531519][2f13] WrapAndroidMediaFromat
time:411581689 enter.
[003:021] [2025-06-17 08:24:47 +0000.531763][2f13] WrapAndroidMediaFromat leave.
expire time = 1 ms
[003:169] [2025-06-17 08:24:47 +0000.680483][2f13] Destroy time:411581838 enter.
[003:170] [2025-06-17 08:24:47 +0000.680723][2f13] WrapAndroidMediaFromat::
Destroy
[003:170] [2025-06-17 08:24:47 +0000.680789][2f13] Destroy leave. expire time = 1
ms
[003:170] [2025-06-17 08:24:47 +0000.680849][2f13] ~WrapAndroidMediaFromat
time:411581839 enter.
[003:170] [2025-06-17 08:24:47 +0000.680907][2f13] ~WrapAndroidMediaFromat leave.
expire time = 0 ms
[003:170] [2025-06-17 08:24:47 +0000.680969][2f13] Create leave. expire time = 330
ms
[003:170] [2025-06-17 08:24:47 +0000.681032][2f13] isSemiPlanarSupport
time:411581839 enter.
[003:170] [2025-06-17 08:24:47 +0000.681087][2f13] H264Encoder isSemiPlanarSupport
[003:170] [2025-06-17 08:24:47 +0000.681144][2f13] isSemiPlanarSupport leave.
expire time = 0 ms
[003:170] [2025-06-17 08:24:47 +0000.681202][2f13] creat hw H264Encoder success,
isSemiPlanar:1
[003:170] [2025-06-17 08:24:47 +0000.681501][2f13] InitEncode leave. expire time =
330 ms
[003:170] [2025-06-17 08:24:47 +0000.681601][2f13] H264Encode::created Encoder
[003:170] [2025-06-17 08:24:47 +0000.681661][2f13] H264Encode:: H264 encoder
created.
[003:171] [2025-06-17 08:24:47 +0000.681763][2f13] H264 encoder created.
[003:171] [2025-06-17 08:24:47 +0000.681821][2f13]
RecordingSessionInternalSimple:created avc encoder avc: 0x741be4db40
[003:171] [2025-06-17 08:24:47 +0000.681964][2f13] setOutput:
[003:171] [2025-06-17 08:24:47 +0000.682018][2f13]
RecordingSessionInternalSimple:encoder set output to muxer!
[003:171] [2025-06-17 08:24:47 +0000.682072][2f13] request a key frame
[003:171] [2025-06-17 08:24:47 +0000.682123][2f13] H264Encode:: request a key frame
[003:171] [2025-06-17 08:24:47 +0000.682345][2f13] setDisplayRotate :90
[003:171] [2025-06-17 08:24:47 +0000.682480][2f13] MP4Recorder AddDisplayRotate:90
c:6.12323e-17 s:-1 matrix[0]:0 matrix[1]:256 matrix[2]:0 matrix[3]:65535
matrix[4]:0 matrix[8]:64
[003:171] [2025-06-17 08:24:47 +0000.682627][2f14] StartRecording:
[003:172] [2025-06-17 08:24:47 +0000.682750][2f42] operator(): Set the recording
session in mic source. recording session: 0x7417d5df80
[003:172] [2025-06-17 08:24:47 +0000.683004][2f14] operator() leave. expire time =
545 ms
[003:172] [2025-06-17 08:24:47 +0000.683004][2f41] AF_SpeedFilter audio
0x7417d5e100 PullFrame
[003:172] [2025-06-17 08:24:47 +0000.683156][2f41]
RecordAudioSource::PullAudioFrame
[003:172] [2025-06-17 08:24:47 +0000.683219][2f41] AF_SpeedFilter::PullFrame eof4
[003:174] [2025-06-17 08:24:47 +0000.685384][2f41]
Warning(media_filter_camera.cc:548): media pull audio frame failed:4
[003:181] [2025-06-17 08:24:47 +0000.692014][2f41] AF_SpeedFilter audio time,
0x7417d5e100 rcv time: 411581839
[003:181] [2025-06-17 08:24:47 +0000.692202][2f41] AF_SpeedFilter audio time,
0x7417d5e100 rcv time: 411581839in_nSamples:441
[003:181] [2025-06-17 08:24:47 +0000.692499][2f41] resampled_data_size:0
[003:224] [2025-06-17 08:24:47 +0000.735680][2f14]
MediaFilterCamera::NeedProcessTexture
[003:225] [2025-06-17 08:24:47 +0000.735861][2f14] begine recode to first frame
spend time:598
[003:225] [2025-06-17 08:24:47 +0000.735934][2f14] CameraSource::PushExtraFrame
pkt_dts: 0, width: 1280, height: 720, stride(kYPlane): 0, stride(kUPlane): 0,
stride(KVPlane): 0, this:0x7417d5db00
[003:225] [2025-06-17 08:24:47 +0000.736023][2f14] blur_distance_:0
[003:225] [2025-06-17 08:24:47 +0000.736081][2f14] blur_direction_angle_:-90
[003:225] [2025-06-17 08:24:47 +0000.736146][2f14]
GPUImageProcessing::SetOrientation orientation: 90
[003:225] [2025-06-17 08:24:47 +0000.736207][2f14] webrtc common_video
I420VideoFrame::CopyFrame (1/1000)
[003:225] [2025-06-17 08:24:47 +0000.736306][2f14] GPUImageProcessing: process
video frame with resolution 1280 X 720
[003:225] [2025-06-17 08:24:47 +0000.736374][2f14] GPUImageProcessing: input frame
width1280 X 720
[003:230] [2025-06-17 08:24:47 +0000.740847][2f14] drawYUV420 render
OpenGLRenderProgram:0x74207eb598
[003:235] [2025-06-17 08:24:47 +0000.746203][2f14] The next ready buffer:-1
m_nextAvaiablePixelBuffer:0
[003:235] [2025-06-17 08:24:47 +0000.746456][2f14] CropFilter::OnVideoFrame
outputtexture :6
[003:235] [2025-06-17 08:24:47 +0000.746525][2f14] The next ready buffer:-1
m_nextAvaiablePixelBuffer:0
[003:249] [2025-06-17 08:24:47 +0000.760543][2f14] The read pixel from buffer take:
14 width:1280 height:720 frameType:0
[003:270] [2025-06-17 08:24:47 +0000.780826][2f14] drawYUV420 render
OpenGLRenderProgram:0x74207eb598
[003:292] [2025-06-17 08:24:47 +0000.802967][2f14] The convert RGB to YUV take 11
[003:292] [2025-06-17 08:24:47 +0000.803695][2f14] FilterPipeline2::OnVideoFrame
pts 41 last_video_timestamp_ 41
[003:293] [2025-06-17 08:24:47 +0000.803955][2f14]
MediaFilterCamera::OnReceiveVideoFrame output_video_timestamp_:0
[003:293] [2025-06-17 08:24:47 +0000.804602][2f49]
MediaFilterCamera::WriteVideoFrametoMP4_w -> pushExtraYUVFrametimestamp:0
[003:295] [2025-06-17 08:24:47 +0000.805882][2f49] RecordingSessionInternalSimple:
pushExtraYUVFrame. width:1280 height:720input pixel type:0 dataType:0 stride:1280
streamId:1 timestamp:0
[003:295] [2025-06-17 08:24:47 +0000.806005][2f49] push video frame to H264
encoder. (100 frame for one log)
[003:295] [2025-06-17 08:24:47 +0000.806088][2f49] push video frame to H264
encoder. (100 frame for one log) used width:1280 height:720
[003:295] [2025-06-17 08:24:47 +0000.806164][2f49] H264Encode::push video frame to
H264 encoder, using hw H264:1 width:1280 height:720 pts:0(100 frame for one log)
[003:295] [2025-06-17 08:24:47 +0000.806234][2f49] Push an pts:0 to dts queue.
[003:295] [2025-06-17 08:24:47 +0000.806324][2f49] DTS queue for
Generator:0x74262a8cb8 0
[003:295] [2025-06-17 08:24:47 +0000.806383][2f49] The input pts:0 fps:30
[003:297] [2025-06-17 08:24:47 +0000.808413][2f49]
AndroidMediaCodecVideoEncoder::encodeFrameInput force a key frame
[003:300] [2025-06-17 08:24:47 +0000.811164][2f41] AF_SpeedFilter audio time 222,
0x7417d5e100 out time: 411581839 org time: 411581839
[003:300] [2025-06-17 08:24:47 +0000.811334][2f41] FilterPipeline2::OnAudioFrame
pts 10 last_audio_timestamp_ 10
[003:300] [2025-06-17 08:24:47 +0000.811424][2f41]
MediaFilterCamera::OnReceiveAudioFrame timestamp: 411581839
[003:300] [2025-06-17 08:24:47 +0000.811496][2f41]
MediaFilterCamera::OnReceiveAudioFrame timestamp: sample_rate_hz_:44100
num_channels_:2 samples_per_channel_:441
[003:300] [2025-06-17 08:24:47 +0000.811583][2f41] AF_SpeedFilter audio time
[003:301] [2025-06-17 08:24:47 +0000.811713][2f41] AF_SpeedFilter audio time 111,
0x7417d5e100 out time: 411581849 org time: 411581849
[003:309] [2025-06-17 08:24:47 +0000.820425][2f14] drawYUV420 render
OpenGLRenderProgram:0x74207eb598
[003:310] [2025-06-17 08:24:47 +0000.821396][2f48]
MediaFilterCamera::WriteAudioFrametoMP4_w timestamp: 0queue_audio_frame_:1
[003:312] [2025-06-17 08:24:47 +0000.823395][2f4a] add aac audio track with id:1
[003:391] [2025-06-17 08:24:47 +0000.902664][2f4a] audio start ts:0
[003:392] [2025-06-17 08:24:47 +0000.902941][2f4a] the audio frame has been written
into MP4 file
[003:442] [2025-06-17 08:24:47 +0000.953657][2f49] h264 add frame header cdr flag
[003:444] [2025-06-17 08:24:47 +0000.954698][2f49] h264 add frame header cdr flag
[003:444] [2025-06-17 08:24:47 +0000.955146][2f49] SendFrame
encodedImage._timeStamp:0encodedImage->_length:63791
[003:444] [2025-06-17 08:24:47 +0000.955271][2f49] Received key frame:0
[003:444] [2025-06-17 08:24:47 +0000.955349][2f49] last dts:0 currentPts:0
ppsOrSPS:0 queue length:5
[003:444] [2025-06-17 08:24:47 +0000.955419][2f49] H264Encode::H264SWEncoder get
callback, length:63791 type:0 nalType:7length:18
[003:444] [2025-06-17 08:24:47 +0000.955479][2f49] H264Encode:: get a sps pps
header!headerSize:31
[003:444] [2025-06-17 08:24:47 +0000.955534][2f49] H264Encode::H264 encoder push
frame to next component(100 times for one log) with dts:0 pts:0
[003:445] [2025-06-17 08:24:47 +0000.955788][2f4a] get the H.264 SPS parameter
[003:445] [2025-06-17 08:24:47 +0000.956652][2f4a] add video track with id:2
[003:446] [2025-06-17 08:24:47 +0000.957432][2f4a] get the H.264 PPS parameter
[003:447] [2025-06-17 08:24:47 +0000.957912][2f4a] get the H.264 IDR frame
[003:447] [2025-06-17 08:24:47 +0000.958019][2f4a] resss:true
[003:447] [2025-06-17 08:24:47 +0000.958075][2f4a] video start ts:0
[003:447] [2025-06-17 08:24:47 +0000.958270][2f4a] the video frame has been written
into MP4 file
[003:649] [2025-06-17 08:24:48 +0000.159747][2f42] Error([Link]): There
is no output connect to mic source, discard the frame.
[003:732] [2025-06-17 08:24:48 +0000.243437][2f18] haveEnoughProcessedData
[Link]: 10
[003:792] [2025-06-17 08:24:48 +0000.303226][2f14] The read pixel from buffer take:
0 width:1280 height:720 frameType:0
[003:839] [2025-06-17 08:24:48 +0000.349898][2f14] The convert RGB to YUV take 6
[004:194] [2025-06-17 08:24:48 +0000.705582][2f49] DTS queue for
Generator:0x74262a8cb8 891 918
[004:311] [2025-06-17 08:24:48 +0000.822515][2f14] The read pixel from buffer take:
0 width:1280 height:720 frameType:0
[004:326] [2025-06-17 08:24:48 +0000.837560][2f0f]
monitorTime:4003totalDuration:3910
[004:359] [2025-06-17 08:24:48 +0000.870024][2f14] The convert RGB to YUV take 5
[004:419] [2025-06-17 08:24:48 +0000.930320][2f18] Run AGC when audioType = 0
[004:419] [2025-06-17 08:24:48 +0000.930581][2f18]
AudioDeviceDataHandler::MixAndSendOutFrame
[004:650] [2025-06-17 08:24:49 +0000.160773][2f42] Error([Link]): There
is no output connect to mic source, discard the frame.
[004:695] [2025-06-17 08:24:49 +0000.205775][2f49] Push an pts:1420 to dts queue.
[004:735] [2025-06-17 08:24:49 +0000.246467][2f49] last dts:1388 currentPts:1420
ppsOrSPS:0 queue length:2
[004:811] [2025-06-17 08:24:49 +0000.322213][2f41] AF_SpeedFilter audio
0x7417d5e100 PullFrame
[004:813] [2025-06-17 08:24:49 +0000.323723][2f14] The read pixel from buffer take:
1 width:1280 height:720 frameType:0
[004:850] [2025-06-17 08:24:49 +0000.361476][2f14] The convert RGB to YUV take 4
[005:026] [2025-06-17 08:24:49 +0000.537174][2f49] DTS queue for
Generator:0x74262a8cb8 1726 1754
[005:070] [2025-06-17 08:24:49 +0000.580814][2f41]
RecordAudioSource::PullAudioFrame
[005:311] [2025-06-17 08:24:49 +0000.822387][2f14] The read pixel from buffer take:
0 width:1280 height:720 frameType:0
[005:354] [2025-06-17 08:24:49 +0000.865377][2f14] The convert RGB to YUV take 6
[005:355] [2025-06-17 08:24:49 +0000.865854][2f14] webrtc common_video plane
old ..... (1/1000) new: 1001 delete: 984 diff: 17
[005:397] [2025-06-17 08:24:49 +0000.909433][2f49] h264 add frame header cdr flag
[005:399] [2025-06-17 08:24:49 +0000.910052][2f49] Received key frame:2082
[005:442] [2025-06-17 08:24:49 +0000.953150][2f4a] get the H.264 IDR frame
[005:454] [2025-06-17 08:24:49 +0000.964841][2f18] haveEnoughProcessedData
[Link]: 0
[005:457] [2025-06-17 08:24:49 +0000.967979][2f41] resampled_data_size:7168
[005:499] [2025-06-17 08:24:50 +0000.10090][2f41] AF_SpeedFilter::PullFrame eof4
[005:501] [2025-06-17 08:24:50 +0000.12356][2f41]
Warning(media_filter_camera.cc:548): media pull audio frame failed:4
[005:643] [2025-06-17 08:24:50 +0000.154560][2f42] Error([Link]): There
is no output connect to mic source, discard the frame.
[005:650] [2025-06-17 08:24:50 +0000.161569][2f48]
MediaFilterCamera::WriteAudioFrametoMP4_w timestamp: 2321queue_audio_frame_:4
[005:811] [2025-06-17 08:24:50 +0000.322662][2f14] The read pixel from buffer take:
0 width:1280 height:720 frameType:0
[005:863] [2025-06-17 08:24:50 +0000.373838][2f14] The convert RGB to YUV take 5
[005:864] [2025-06-17 08:24:50 +0000.375048][2f49] DTS queue for
Generator:0x74262a8cb8 2517 2545 2592
[006:018] [2025-06-17 08:24:50 +0000.528817][2f49] Push an pts:2745 to dts queue.
[006:059] [2025-06-17 08:24:50 +0000.570397][2f49] last dts:2714 currentPts:2745
ppsOrSPS:0 queue length:2
[006:327] [2025-06-17 08:24:50 +0000.838483][2f14] The read pixel from buffer take:
0 width:1280 height:720 frameType:0
[006:356] [2025-06-17 08:24:50 +0000.866718][2f14] The convert RGB to YUV take 6
[006:391] [2025-06-17 08:24:50 +0000.902092][2f41] AF_SpeedFilter audio
0x7417d5e100 PullFrame
[006:424] [2025-06-17 08:24:50 +0000.935101][2f18] Run AGC when audioType = 0
[006:618] [2025-06-17 08:24:51 +0000.129495][2f14] drawYUV420 render
OpenGLRenderProgram:0x74207eb598
[006:650] [2025-06-17 08:24:51 +0000.160908][2f42] Error([Link]): There
is no output connect to mic source, discard the frame.
[006:691] [2025-06-17 08:24:51 +0000.202146][2f14] GPUImageProcessing: process
video frame with resolution 1280 X 720
[006:691] [2025-06-17 08:24:51 +0000.202300][2f14] GPUImageProcessing: input frame
width1280 X 720
[006:692] [2025-06-17 08:24:51 +0000.203061][2f14] The next ready buffer:0
m_nextAvaiablePixelBuffer:1
[006:692] [2025-06-17 08:24:51 +0000.203212][2f14] The next ready buffer:0
m_nextAvaiablePixelBuffer:1
[006:698] [2025-06-17 08:24:51 +0000.209655][2f49]
MediaFilterCamera::WriteVideoFrametoMP4_w -> pushExtraYUVFrametimestamp:3426
[006:699] [2025-06-17 08:24:51 +0000.209934][2f49] DTS queue for
Generator:0x74262a8cb8 3353 3379 3426
[006:703] [2025-06-17 08:24:51 +0000.213873][2f49] H264Encode::H264 encoder push
frame to next component(100 times for one log) with dts:3379 pts:3379
[006:729] [2025-06-17 08:24:51 +0000.239947][2f49] RecordingSessionInternalSimple:
pushExtraYUVFrame. width:1280 height:720input pixel type:0 dataType:0 stride:1280
streamId:1 timestamp:3454
[006:729] [2025-06-17 08:24:51 +0000.240162][2f49] push video frame to H264
encoder. (100 frame for one log)
[006:729] [2025-06-17 08:24:51 +0000.240224][2f49] push video frame to H264
encoder. (100 frame for one log) used width:1280 height:720
[006:729] [2025-06-17 08:24:51 +0000.240283][2f49] H264Encode::push video frame to
H264 encoder, using hw H264:1 width:1280 height:720 pts:3454(100 frame for one
log)
[006:729] [2025-06-17 08:24:51 +0000.240369][2f49] The input pts:3454 fps:30
[006:765] [2025-06-17 08:24:51 +0000.276440][2f49] SendFrame
encodedImage._timeStamp:3426encodedImage->_length:82768
[006:767] [2025-06-17 08:24:51 +0000.277788][2f49] H264Encode::H264SWEncoder get
callback, length:60704 type:1 nalType:1length:60700
[006:813] [2025-06-17 08:24:51 +0000.324482][2f14] The read pixel from buffer take:
0 width:1280 height:720 frameType:0
[006:858] [2025-06-17 08:24:51 +0000.368776][2f14] The convert RGB to YUV take 5
[006:902] [2025-06-17 08:24:51 +0000.413179][2f41]
RecordAudioSource::PullAudioFrame
[007:161] [2025-06-17 08:24:51 +0000.672092][2f18] haveEnoughProcessedData
[Link]: 0
[007:317] [2025-06-17 08:24:51 +0000.827845][2f14] The read pixel from buffer take:
0 width:1280 height:720 frameType:0
[007:349] [2025-06-17 08:24:51 +0000.860050][2f14] The convert RGB to YUV take 4
[007:351] [2025-06-17 08:24:51 +0000.861986][2f49] Push an pts:4078 to dts queue.
[007:436] [2025-06-17 08:24:51 +0000.947104][2f49] h264 add frame header cdr flag
[007:437] [2025-06-17 08:24:51 +0000.947895][2f49] Received key frame:4078
[007:437] [2025-06-17 08:24:51 +0000.947999][2f49] last dts:4051 currentPts:4078
ppsOrSPS:0 queue length:3
[007:446] [2025-06-17 08:24:51 +0000.957334][2f4a] get the H.264 IDR frame
[007:453] [2025-06-17 08:24:51 +0000.963822][2f14] webrtc common_video plane
old ..... (1/1000) new: 2001 delete: 1984 diff: 17
[007:498] [2025-06-17 08:24:52 +0000.9780][2f49] DTS queue for
Generator:0x74262a8cb8 4187 4224
[007:645] [2025-06-17 08:24:52 +0000.156106][2f42] Error([Link]): There
is no output connect to mic source, discard the frame.
[007:668] [2025-06-17 08:24:52 +0000.179468][2f41] resampled_data_size:0
[007:746] [2025-06-17 08:24:52 +0000.256705][2f41] AF_SpeedFilter::PullFrame eof4
[007:748] [2025-06-17 08:24:52 +0000.259129][2f41]
Warning(media_filter_camera.cc:548): media pull audio frame failed:4
[007:816] [2025-06-17 08:24:52 +0000.327377][2f14] The read pixel from buffer take:
0 width:1280 height:720 frameType:0
[007:863] [2025-06-17 08:24:52 +0000.374419][2f14] The convert RGB to YUV take 6
[007:978] [2025-06-17 08:24:52 +0000.489212][2f41] AF_SpeedFilter audio
0x7417d5e100 PullFrame
[008:011] [2025-06-17 08:24:52 +0000.521983][2f48]
MediaFilterCamera::WriteAudioFrametoMP4_w timestamp: 4643queue_audio_frame_:8
[008:423] [2025-06-17 08:24:52 +0000.933875][2f18] Run AGC when audioType = 0
[008:424] [2025-06-17 08:24:52 +0000.935030][2f18]
AudioDeviceDataHandler::MixAndSendOutFrame
[008:447] [2025-06-17 08:24:52 +0000.958510][2f14] The read pixel from buffer take:
0 width:1280 height:720 frameType:0
[008:464] [2025-06-17 08:24:52 +0000.975246][2f49] DTS queue for
Generator:0x74262a8cb8 5141 5181
[008:487] [2025-06-17 08:24:52 +0000.998533][2f14] The convert RGB to YUV take 8
[008:653] [2025-06-17 08:24:53 +0000.164163][2f42] Error([Link]): There
is no output connect to mic source, discard the frame.
[008:786] [2025-06-17 08:24:53 +0000.296987][2f49] Push an pts:5512 to dts queue.
[008:800] [2025-06-17 08:24:53 +0000.311338][2f41]
RecordAudioSource::PullAudioFrame
[008:826] [2025-06-17 08:24:53 +0000.337483][2f49] last dts:5483 currentPts:5512
ppsOrSPS:0 queue length:2
[008:901] [2025-06-17 08:24:53 +0000.411710][2f18] haveEnoughProcessedData
[Link]: 10
[008:914] [2025-06-17 08:24:53 +0000.424688][2f14] The read pixel from buffer take:
1 width:1280 height:720 frameType:0
[008:951] [2025-06-17 08:24:53 +0000.462067][2f14] The convert RGB to YUV take 5
[009:255] [2025-06-17 08:24:53 +0000.765759][2f49] DTS queue for
Generator:0x74262a8cb8 5949 5981
[009:414] [2025-06-17 08:24:53 +0000.925610][2f14] The read pixel from buffer take:
0 width:1280 height:720 frameType:0
[009:461] [2025-06-17 08:24:53 +0000.972279][2f14] The convert RGB to YUV take 4
[009:523] [2025-06-17 08:24:54 +0000.34587][2f49] h264 add frame header cdr flag
[009:524] [2025-06-17 08:24:54 +0000.35271][2f49] Received key frame:6191
[009:565] [2025-06-17 08:24:54 +0000.76027][2f4a] get the H.264 IDR frame
[009:610] [2025-06-17 08:24:54 +0000.121554][2f14] webrtc common_video plane
old ..... (1/1000) new: 3001 delete: 2981 diff: 20
[009:614] [2025-06-17 08:24:54 +0000.125156][2f41] AF_SpeedFilter audio
0x7417d5e100 PullFrame
[009:643] [2025-06-17 08:24:54 +0000.154106][2f42] Error([Link]): There
is no output connect to mic source, discard the frame.
[009:856] [2025-06-17 08:24:54 +0000.367397][263e]
Java_com_xiaomi_recordmediaprocess_MediaEffectCamera_StopRecordingJni:
[009:857] [2025-06-17 08:24:54 +0000.367821][2f14] operator(): Stop
[009:857] [2025-06-17 08:24:54 +0000.367923][2f14] StopPullFrameAndWriteMp4
time:411588526 enter.
[009:858] [2025-06-17 08:24:54 +0000.368868][2f14] StopRecording:
[009:864] [2025-06-17 08:24:54 +0000.375382][2f41] resampled_data_size:512
[009:864] [2025-06-17 08:24:54 +0000.375572][2f41] AF_SpeedFilter audio time 222,
0x7417d5e100 out time: 411588429 org time: 411588429
[009:865] [2025-06-17 08:24:54 +0000.375805][2f41] PullAudioFrame: PullFrame audio
finished.
[009:865] [2025-06-17 08:24:54 +0000.375884][2f41]
Warning(media_filter_camera.cc:543): media pull audio frame EOF, so need stop
Timer!
[009:867] [2025-06-17 08:24:54 +0000.377855][2f49]
MediaFilterCamera::WriteVideoFrametoMP4_wwrite mp4 video sum frames:192
[009:869] [2025-06-17 08:24:54 +0000.380110][2f13] stop recording
[009:869] [2025-06-17 08:24:54 +0000.380220][2f13]
RecordingSessionInternalSimple:destroy media processers
[009:869] [2025-06-17 08:24:54 +0000.380280][2f13] H264Encode::H264Encoder flush
frames, m_useHWEncoder:1
[009:869] [2025-06-17 08:24:54 +0000.380337][2f13] H264Encode::flushing hareware
Encoder
[009:869] [2025-06-17 08:24:54 +0000.380611][2f13] Flush time:411588538 enter.
[009:870] [2025-06-17 08:24:54 +0000.380712][2f13] H264Encoder encoder flush
[009:870] [2025-06-17 08:24:54 +0000.380773][2f13] flush output queue
[010:190] [2025-06-17 08:24:54 +0000.701047][2f13] Flush leave. expire time = 321
ms
[010:190] [2025-06-17 08:24:54 +0000.701315][2f13] ~H264EncodeWrap:
[010:190] [2025-06-17 08:24:54 +0000.701415][2f13] ~H264Encode:
[010:190] [2025-06-17 08:24:54 +0000.701494][2f13] teardownCompressionSession:
H264Encode::destroying Encoder
[010:190] [2025-06-17 08:24:54 +0000.701551][2f13] Release time:411588859 enter.
[010:191] [2025-06-17 08:24:54 +0000.702020][2f13] Release:
MediaCodecVideoEncoder::Release _inited:1
[010:191] [2025-06-17 08:24:54 +0000.702114][2f13] Destroy time:411588860 enter.
[010:191] [2025-06-17 08:24:54 +0000.702171][2f13] H264Encoder encoderDestroy
[010:191] [2025-06-17 08:24:54 +0000.702227][2f13]
AndroidMediaCodecVideoEncoder::release env: 0x74b8607140
[010:191] [2025-06-17 08:24:54 +0000.702286][2f13]
AndroidMediaCodecVideoEncoder::Destroy
[010:223] [2025-06-17 08:24:54 +0000.734152][2f13] Destroy leave. expire time = 32
ms
[010:223] [2025-06-17 08:24:54 +0000.734422][2f13] Release leave. expire time = 33
ms
[010:223] [2025-06-17 08:24:54 +0000.734495][2f13] ~AndroidHwAvcEncoder
time:411588892 enter.
[010:224] [2025-06-17 08:24:54 +0000.734742][2f13] Release time:411588893 enter.
[010:224] [2025-06-17 08:24:54 +0000.734811][2f13] Release:
MediaCodecVideoEncoder:: has been released before, just return
[010:224] [2025-06-17 08:24:54 +0000.734865][2f13] Release leave. expire time = 0
ms
[010:224] [2025-06-17 08:24:54 +0000.734921][2f13] ~AndroidMediaCodecVideoEncoder
[010:224] [2025-06-17 08:24:54 +0000.734973][2f13] ~WrapAndroidMediaCodec
time:411588893 enter.
[010:224] [2025-06-17 08:24:54 +0000.735130][2f13] ~WrapAndroidMediaCodec leave.
expire time = 0 ms
[010:225] [2025-06-17 08:24:54 +0000.736147][2f13] video hevc hw codec
destructor:0x741bd1b5f8
[010:225] [2025-06-17 08:24:54 +0000.736328][2f13] ~AndroidHwAvcEncoder leave.
expire time = 2 ms
[010:225] [2025-06-17 08:24:54 +0000.736433][2f13] teardownCompressionSession:
H264Encode::destroyed Encoder
[010:225] [2025-06-17 08:24:54 +0000.736550][2f13]
RecordingSessionInternalSimple:destroy aac encoder output!
[010:225] [2025-06-17 08:24:54 +0000.736622][2f13] AACSWEncode destructor
[010:237] [2025-06-17 08:24:54 +0000.748205][2f4a] MP4 close file successfully
[010:237] [2025-06-17 08:24:54 +0000.748518][2f4a] Recording session Internal:
notify recording ok
[010:237] [2025-06-17 08:24:54 +0000.748652][2f4a] onRecordingOk: Recording Ok
averagefps 0,
/data/user/0/[Link]/no_backup/milive//record_video_411581497.mp4,
output_video_timestamp_:6556 last_video_pts_:6556
[010:238] [2025-06-17 08:24:54 +0000.748797][2f4a] OnRecordFinish:
[010:254] [2025-06-17 08:24:54 +0000.765015][2f4a] onRecordingOk: net seek
pos:0record video duration:6589record audio duration:6571
[010:256] [2025-06-17 08:24:54 +0000.766783][2f42] destructMicSource_w:
[010:256] [2025-06-17 08:24:54 +0000.766976][2f42] setOutput_w:
MicSource::setOutput() 0x0
[010:256] [2025-06-17 08:24:54 +0000.767109][2f42] close external audio stream
[010:257] [2025-06-17 08:24:54 +0000.767768][2f14] releaseThread 0x7417d5c480
[010:257] [2025-06-17 08:24:54 +0000.767943][2f14] ~MicSource: Mic source
destroyed:0x742bcbfd00
[010:258] [2025-06-17 08:24:54 +0000.769651][2f14] StopPullFrameAndWriteMp4 leave.
expire time = 402 ms
[010:259] [2025-06-17 08:24:54 +0000.769976][2f14] DestroyPipelineAndFilters
time:411588928 enter.
[010:261] [2025-06-17 08:24:54 +0000.771706][2f14] UnbindInputFilter 0x7417d5dc40
this 0x74207eb7c0
[010:261] [2025-06-17 08:24:54 +0000.771975][2f14] UnbindInputFilter 0x7417d5e0d8
this 0x7417d5e250
[010:261] [2025-06-17 08:24:54 +0000.772163][2f14] UnbindInputFilter 0x74207eb7c0
this 0x742052c160
[010:261] [2025-06-17 08:24:54 +0000.772373][2f14] filter: filter pipeline destroy
this: 0x742052c0c0
[010:262] [2025-06-17 08:24:54 +0000.773528][2f14] ClearVideoOfSources: recodring
total frames:0
[010:263] [2025-06-17 08:24:54 +0000.773884][2f14] ClearVideoOfSources:
[010:263] [2025-06-17 08:24:54 +0000.774016][2f14] GPUImageProcessing destruct.
[010:263] [2025-06-17 08:24:54 +0000.774130][2f14] destroy TrivalImageDrawer
0x742049d600
[010:263] [2025-06-17 08:24:54 +0000.774204][2f14] The shader has been initialize,
clean up them.
[010:263] [2025-06-17 08:24:54 +0000.774384][2f14] ~OpenGLFrameBuffer:
[010:267] [2025-06-17 08:24:54 +0000.777952][2f14] ~OpenGLFrameBuffer:
[010:267] [2025-06-17 08:24:54 +0000.778422][2f14] ~OpenGLFrameBuffer:
[010:268] [2025-06-17 08:24:54 +0000.778775][2f14] ~OpenGLFrameBuffer:
[010:268] [2025-06-17 08:24:54 +0000.779108][2f14] ~OpenGLFrameBuffer:
[010:269] [2025-06-17 08:24:54 +0000.779783][2f14] ~OpenGLFrameBuffer:
[010:270] [2025-06-17 08:24:54 +0000.780799][2f14] GPUImageProcessing destruct
finish.
[010:270] [2025-06-17 08:24:54 +0000.781060][2f14] GPURGBAFrame destruct.
[010:270] [2025-06-17 08:24:54 +0000.781269][2f14] destroy OpenGLRenderProgram
0x74207eb598
[010:270] [2025-06-17 08:24:54 +0000.781403][2f14] ~CameraSource time:411588939
enter.
[010:271] [2025-06-17 08:24:54 +0000.781753][2f14] ~CameraSource leave. expire
time = 1 ms
[010:271] [2025-06-17 08:24:54 +0000.781862][2f14] ~RecordAudioSource
time:411588940 enter.
[010:271] [2025-06-17 08:24:54 +0000.781935][2f14] ~RecordAudioSource leave.
expire time = 0 ms
[010:271] [2025-06-17 08:24:54 +0000.782041][2f14] DestroyPipelineAndFilters
leave. expire time = 12 ms
[010:419] [2025-06-17 08:24:54 +0000.930016][2f19] webrtc device:Handle the data
from samplesPerSec recording sample rate:48000 nSamples:480 nBytesPerSample:#
nChannels:#
[010:419] [2025-06-17 08:24:54 +0000.930221][2f19] _deviceSampleRate:48000
[010:421] [2025-06-17 08:24:54 +0000.931757][2f18] Run AGC when audioType = 0
[010:455] [2025-06-17 08:24:54 +0000.966467][263e]
Java_com_xiaomi_recordmediaprocess_MediaEffectGraph_ConstructMediaEffectGraphJni:
[010:457] [2025-06-17 08:24:54 +0000.968016][263e] machine model :redmi
[010:457] [2025-06-17 08:24:54 +0000.968117][263e] Support this machine
model :redmi
[010:457] [2025-06-17 08:24:54 +0000.968197][263e] global inited! current sdk
version: 12-14-d8558ab
[010:457] [2025-06-17 08:24:54 +0000.968499][263e] filter: filter pipeline
construtc this: 0x742bbe7a00
[010:457] [2025-06-17 08:24:54 +0000.968595][263e] MediaFilterGraph:
MediaFilterGraph construct
[010:457] [2025-06-17 08:24:54 +0000.968662][263e] GLESContext:
[010:458] [2025-06-17 08:24:54 +0000.968789][263e] The result of eglGetDisplay is:
0x1
[010:466] [2025-06-17 08:24:54 +0000.976890][263e] The result of creation:
0x74204d3300
[010:466] [2025-06-17 08:24:54 +0000.977171][263e] The result of
eglCreatePbufferSurface is: 0x74204d3400
[010:468] [2025-06-17 08:24:54 +0000.978742][263e] The source 0
path:/data/user/0/[Link]/no_backup/milive//record_video_411581497.mp4
[010:468] [2025-06-17 08:24:54 +0000.978885][263e] The source 0 speed:1
[010:468] [2025-06-17 08:24:54 +0000.979007][263e] AddVideoSource: add video
source:
/data/user/0/[Link]/no_backup/milive//record_video_411581497.mp4,
delay: 0
[010:468] [2025-06-17 08:24:54 +0000.979131][263e] CreateDecoderByVideoSource
time:411589137 enter.
[010:468] [2025-06-17 08:24:54 +0000.979499][263e] running_decoder_count:0max
count:2
[010:468] [2025-06-17 08:24:54 +0000.979583][263e] Start decoding file
/data/user/0/[Link]/no_backup/milive//record_video_411581497.mp4,
sync_mode: 1, seek_pos: 0, delay: 0, this:0x74ab58d400
[010:490] [2025-06-17 08:24:55 +0000.1659][2f70] FFMpeg=> [mov,mp4,m4a,3gp,3g2,mj2
@ 0x741bb6b000] Current FFmpeg version git-2021-06-16-97cea6f
[010:621] [2025-06-17 08:24:55 +0000.132184][2f18] haveEnoughProcessedData
[Link]: 10
[010:725] [2025-06-17 08:24:55 +0000.236647][2f70] OnStreamInfoFound: video
duration_: 6589
[010:729] [2025-06-17 08:24:55 +0000.239764][263e] start decoder
[010:729] [2025-06-17 08:24:55 +0000.239921][263e] CreateDecoderByVideoSource
leave. expire time = 261 ms
[010:729] [2025-06-17 08:24:55 +0000.240047][263e] BindInputFilter 0x742bc12720
this 0x74205ab358
[010:729] [2025-06-17 08:24:55 +0000.240146][263e] BindInputFilter 0x74205ab358
this 0x74205ab418
[010:729] [2025-06-17 08:24:55 +0000.240246][263e] BindInputFilter 0x742bc12720
this 0x74205ab4d8
[010:729] [2025-06-17 08:24:55 +0000.240339][263e] BindInputFilter 0x74205ab4d8
this 0x74205ab598
[010:729] [2025-06-17 08:24:55 +0000.240405][263e] AddVideoSource: source filter
list is empty, add first:
/data/user/0/[Link]/no_backup/milive//record_video_411581497.mp4
[010:729] [2025-06-17 08:24:55 +0000.240503][263e] BindInputFilter 0x74205ab418
this 0x74205ab658
[010:729] [2025-06-17 08:24:55 +0000.240596][263e] BindInputFilter 0x74205ab658
this 0x742bbe7aa0
[010:730] [2025-06-17 08:24:55 +0000.240691][263e] BindInputFilter 0x74205ab598
this 0x74205ab718
[010:730] [2025-06-17 08:24:55 +0000.240784][263e] AddVideoSource: END add video
source:
/data/user/0/[Link]/no_backup/milive//record_video_411581497.mp4
[010:733] [2025-06-17 08:24:55 +0000.244093][263e]
Java_com_xiaomi_recordmediaprocess_EffectMediaPlayer_ConstructMediaPlayerJni:
[010:733] [2025-06-17 08:24:55 +0000.244104][2f71] NO get frame from decoder
[010:734] [2025-06-17 08:24:55 +0000.245268][263e] machine model :redmi
[010:734] [2025-06-17 08:24:55 +0000.245302][2f71] NO get frame from decoder
[010:734] [2025-06-17 08:24:55 +0000.245388][263e] Support this machine
model :redmi
[010:734] [2025-06-17 08:24:55 +0000.245444][263e] global inited! current sdk
version: 12-14-d8558ab
[010:734] [2025-06-17 08:24:55 +0000.245648][263e] GetPipeline:
-----------------------------------------
[010:735] [2025-06-17 08:24:55 +0000.245775][263e] GetPipeline: source:
0x742bc12500
[010:735] [2025-06-17 08:24:55 +0000.245832][263e] GetPipeline: filter: NULLFilter
[010:735] [2025-06-17 08:24:55 +0000.245887][263e] GetPipeline: filter: NULLFilter
[010:735] [2025-06-17 08:24:55 +0000.245938][263e] GetPipeline: filter: NULLFilter
[010:735] [2025-06-17 08:24:55 +0000.245988][263e] GetPipeline: audio filter:
AuidoNULLFilter
[010:735] [2025-06-17 08:24:55 +0000.246041][263e] GetPipeline: audio filter:
AuidoNULLFilter
[010:735] [2025-06-17 08:24:55 +0000.246092][263e] GetPipeline: audio filter:
AudioNUllFilter
[010:735] [2025-06-17 08:24:55 +0000.246142][263e] GetPipeline:
------------------------------------------
[010:735] [2025-06-17 08:24:55 +0000.246198][263e] filter: filter pipeline2 update
pattern: 0
[010:739] [2025-06-17 08:24:55 +0000.249970][263e] Reset: volume estimator reset
frequency : 44100 history size(ms): -1
[010:738] [2025-06-17 08:24:55 +0000.249171][2f71] NO get frame from decoder
[010:741] [2025-06-17 08:24:55 +0000.252361][263e] Reset: volume estimator reset
frequency : 44100 history size(ms): -1
[010:741] [2025-06-17 08:24:55 +0000.252570][263e] Reset: volume estimator reset
frequency : 44100 history size(ms): -1
[010:742] [2025-06-17 08:24:55 +0000.252903][263e] DeviceInit:
[010:744] [2025-06-17 08:24:55 +0000.255649][2f71] NO get frame from decoder
[010:747] [2025-06-17 08:24:55 +0000.258126][263e] AudioManagerAndroid
getProperty:[Link].OUTPUT_SAMPLE_RATE
[010:748] [2025-06-17 08:24:55 +0000.259171][2f71] NO get frame from decoder
[010:755] [2025-06-17 08:24:55 +0000.266362][263e] AudioManagerAndroid
getProperty:[Link].OUTPUT_FRAMES_PER_BUFFER
[010:756] [2025-06-17 08:24:55 +0000.267271][2f71] NO get frame from decoder
[010:757] [2025-06-17 08:24:55 +0000.268158][263e] CreatePlatformSpecificObjects:
[010:757] [2025-06-17 08:24:55 +0000.268334][263e] audio device use null audio
input and opensl output
[010:757] [2025-06-17 08:24:55 +0000.268410][263e] Create OpenSLES output module
with java VM support.
[010:758] [2025-06-17 08:24:55 +0000.268860][263e] AudioManagerAndroid
getProperty:[Link].OUTPUT_SAMPLE_RATE
[010:758] [2025-06-17 08:24:55 +0000.269396][263e] AudioManagerAndroid
getProperty:[Link].OUTPUT_FRAMES_PER_BUFFER
[010:759] [2025-06-17 08:24:55 +0000.269932][263e] Create OpenSLES output module
with buffer num:2
[010:759] [2025-06-17 08:24:55 +0000.270047][263e] Error([Link]): Init the
output and input for audio device template.
[010:759] [2025-06-17 08:24:55 +0000.270115][263e] Init the output device.
[010:760] [2025-06-17 08:24:55 +0000.270974][263e] Set the playout as stereo:1
[010:760] [2025-06-17 08:24:55 +0000.271073][263e] Set the sample rate to be:44100
[010:763] [2025-06-17 08:24:55 +0000.274314][263e] Low latency buffer size:144 low
sample rate:48000
[010:763] [2025-06-17 08:24:55 +0000.274555][263e] DeviceInit: Done
[010:764] [2025-06-17 08:24:55 +0000.274829][263e] UpdateRate: lipsync_debug:
Update framerate from 0 to 15
[010:764] [2025-06-17 08:24:55 +0000.275400][2f71] NO get frame from decoder
[010:774] [2025-06-17 08:24:55 +0000.285129][2f71] NO get frame from decoder
[010:774] [2025-06-17 08:24:55 +0000.285349][263e]
Java_com_xiaomi_recordmediaprocess_EffectMediaPlayer_SetPlayerNotifyJni:
[010:774] [2025-06-17 08:24:55 +0000.285495][263e]
MediaFilterPlayer::SetPlayerNotify 0x74209363e0
[010:776] [2025-06-17 08:24:55 +0000.287621][2f7b] Error([Link]): Set the
pthread name failed with error:34 name:Thread 0x0x7418238718
[010:791] [2025-06-17 08:24:55 +0000.301945][263e]
Error(media_filter_player.cc:392): SetPlayLoop: SetPlayLoop error for
media_filter_graph_ GetCurrentSource null
[010:791] [2025-06-17 08:24:55 +0000.302161][263e]
Java_com_xiaomi_recordmediaprocess_EffectMediaPlayer_SetPlayLoopJni:
EffectMediaPlayer SetPlayLoop #
[010:812] [2025-06-17 08:24:55 +0000.323505][263e]
Java_com_xiaomi_recordmediaprocess_EffectMediaPlayer_SetGravityJni: gravity: 1
width: 720, height: 1280
[010:814] [2025-06-17 08:24:55 +0000.324892][263e] SetGraphLoop: SetGraphLoop 1
[010:814] [2025-06-17 08:24:55 +0000.324991][263e]
Java_com_xiaomi_recordmediaprocess_EffectMediaPlayer_SetGraphLoopJni:
EffectMediaPlayer SetGraphLoop 1
[010:815] [2025-06-17 08:24:55 +0000.326088][263e]
Java_com_xiaomi_recordmediaprocess_EffectMediaPlayer_EnableUserAdjustRotatePlayJni:
[010:819] [2025-06-17 08:24:55 +0000.330589][263e]
Java_com_xiaomi_recordmediaprocess_EffectMediaPlayer_SetViewSurfaceJni:
[010:828] [2025-06-17 08:24:55 +0000.338765][263e]
Java_com_xiaomi_recordmediaprocess_EffectMediaPlayer_StartPreViewJni:
[010:828] [2025-06-17 08:24:55 +0000.339210][2f7d] Start:
[010:828] [2025-06-17 08:24:55 +0000.339467][2f7c] operator(): video render
started.
[010:828] [2025-06-17 08:24:55 +0000.339606][2f7c] DriveRender working... (1/200)
[010:828] [2025-06-17 08:24:55 +0000.339636][2f7d] Start:
[010:828] [2025-06-17 08:24:55 +0000.339669][2f7c] Warning(video_render.cc:390): No
picture to display (1/50)
[010:829] [2025-06-17 08:24:55 +0000.339870][2f7d] Reset: volume estimator reset
frequency : 44100 history size(ms): 5000
[010:829] [2025-06-17 08:24:55 +0000.339965][2f7d] Reset: history total size: 98
[010:829] [2025-06-17 08:24:55 +0000.340088][2f7d] DeviceStart:
audioDevice_:0x7417fd6000
[010:829] [2025-06-17 08:24:55 +0000.340151][2f7d] DeviceStart: time profile
playout init before
[010:829] [2025-06-17 08:24:55 +0000.340215][2f7d] DeviceStart: time profile
playout init end
[010:829] [2025-06-17 08:24:55 +0000.340267][2f7d] OpenSlesOutput:Start playout
[010:832] [2025-06-17 08:24:55 +0000.343327][2f7d] Create the opensl output player.
streamtype before:0
[010:832] [2025-06-17 08:24:55 +0000.343460][2f7d] Create the opensl output player.
streamtype after:3
[010:866] [2025-06-17 08:24:55 +0000.377250][2f7d] Enqueue opensl buffer size:1764
[010:948] [2025-06-17 08:24:55 +0000.458775][2f7d] DeviceStart: time profile
playout all end
[010:948] [2025-06-17 08:24:55 +0000.458925][2f7d] operator(): Audio playback
started.
[010:948] [2025-06-17 08:24:55 +0000.459067][2f7d] operator(): Started now!
[010:948] [2025-06-17 08:24:55 +0000.459317][2f80]
PlayerSimpleBufferQueueCallbackHandler function
[010:948] [2025-06-17 08:24:55 +0000.459485][2f80] NeedMorePlayData No enough
buffers. nSamples: 441(1/100)
[010:948] [2025-06-17 08:24:55 +0000.459555][2f80]
Warning(audio_device_generic.cc:206): No Audio Processing is done for output datas.
[010:949] [2025-06-17 08:24:55 +0000.460110][2f7f] Error(video_source.cc:430): wait
decoder a frame: 0
[010:951] [2025-06-17 08:24:55 +0000.462074][2f7f] (1/100)OnReceiveVideoFrame,
key_frame: 1, pkt_pts: 900pts ms:10000
[010:953] [2025-06-17 08:24:55 +0000.464245][2f7e] (1/100)OnReceiveAudioFrame,
key_frame: 1, pkt_pts: 0
[010:953] [2025-06-17 08:24:55 +0000.464417][2f7e] OnAudioFrameReady frame->pts=-
9223372036854775808 (1/100)
[010:955] [2025-06-17 08:24:55 +0000.465881][2f7e] audio frame wait video
frame.last_video_timestamp:10 last_audio_timestamp:115.964
[010:955] [2025-06-17 08:24:55 +0000.466023][2f7e]
Warning(media_filter_player.cc:409): media pull audio frame failed:4
[010:958] [2025-06-17 08:24:55 +0000.469162][2f7d] Create the audio converter 44100
Hz format:1 channels:2 old channels: 0 Hz: 0 format:-1
[010:958] [2025-06-17 08:24:55 +0000.469550][2f7d] The audio playback speed:100
(1/100)
[010:958] [2025-06-17 08:24:55 +0000.469637][2f7d] lipsync_debug: The current
played audio timestamp is:0(1/50)
[010:959] [2025-06-17 08:24:55 +0000.469740][2f7d] First audio frame rendering
[010:965] [2025-06-17 08:24:55 +0000.475723][2f7f] OnVideoFrameReady(1/200)
[010:966] [2025-06-17 08:24:55 +0000.477659][2f7c] operator() frame->pts-
9223372036854775808 queue_ size: 1 (1/200)
[010:973] [2025-06-17 08:24:55 +0000.484108][2f7c] lipsync_debug:displaying video
ts:900 The current displayed video timestamp is:411589642
[011:246] [2025-06-17 08:24:55 +0000.757395][2f7c] lipsync_debug: render a video
frame
[011:246] [2025-06-17 08:24:55 +0000.757552][2f7c] lipsync_debug: First video frame
rendering.
[011:261] [2025-06-17 08:24:55 +0000.772639][2f7c]
lipsync_debug:lipsync_threadhold: lipsync_delta:0 tsDelta:29 timeDelta:288 last
video ts:900 frame->pts:3510 pkt_dts:-9223372036854775808 pkt_pts:-
9223372036854775808
[011:262] [2025-06-17 08:24:55 +0000.772846][2f7c] lipsync_debug: tsDelta -
timeDelta = -259
[011:262] [2025-06-17 08:24:55 +0000.772908][2f7c] lipsync_debug:result remaining
time:0
[011:262] [2025-06-17 08:24:55 +0000.772963][2f7c] dynamic updated lipsync delay:0
[011:316] [2025-06-17 08:24:55 +0000.829386][2f7f] video frame wait audio frame:
last_video_timestamp:702 last_audio_timestamp:579.819
[011:319] [2025-06-17 08:24:55 +0000.830298][2f7f]
Warning(media_filter_player.cc:442): media pull video error, PullFrameStatus is 4
[011:372] [2025-06-17 08:24:55 +0000.882963][2f7c] lipsync_debug:remaining time:10
tsDelta - timeDelta:12
[011:372] [2025-06-17 08:24:55 +0000.883170][2f7c] lipsync_debug:result remaining
time:10
[011:745] [2025-06-17 08:24:56 +0000.256588][2f7c] lipsync_debug:displaying video
ts:70200 The current displayed video timestamp is:411590414
[011:764] [2025-06-17 08:24:56 +0000.275596][2f7e] audio_frame_list_ empty
[011:861] [2025-06-17 08:24:56 +0000.371835][2f80]
Warning(audio_device_generic.cc:206): No Audio Processing is done for output datas.
[011:948] [2025-06-17 08:24:56 +0000.459370][2f7d] do work DoLipsync!
[011:948] [2025-06-17 08:24:56 +0000.459561][2f7d] total delay:35 videoTsMS:950
audioTsMS:915 diff:35
[011:948] [2025-06-17 08:24:56 +0000.459625][2f7d] Set the lipsync delay:35
[012:083] [2025-06-17 08:24:56 +0000.594218][2f7f] Error(video_source.cc:430): wait
decoder a frame: 0
[012:363] [2025-06-17 08:24:56 +0000.873839][2f18] haveEnoughProcessedData
[Link]: 0
[012:420] [2025-06-17 08:24:56 +0000.930975][2f7c] lipsync_debug:displaying video
ts:127800 The current displayed video timestamp is:411591089
[012:425] [2025-06-17 08:24:56 +0000.935861][2f18] Run AGC when audioType = 0
[012:426] [2025-06-17 08:24:56 +0000.936794][2f18]
AudioDeviceDataHandler::MixAndSendOutFrame
[012:847] [2025-06-17 08:24:57 +0000.358475][2f7c] DriveRender working... (1/200)
[012:881] [2025-06-17 08:24:57 +0000.392410][2f80]
Warning(audio_device_generic.cc:206): No Audio Processing is done for output datas.
[012:959] [2025-06-17 08:24:57 +0000.470582][2f7c]
lipsync_debug:lipsync_threadhold: lipsync_delta:18 tsDelta:54 timeDelta:15 last
video ts:174960 frame->pts:178200 pkt_dts:-9223372036854775808 pkt_pts:-
9223372036854775808
[012:960] [2025-06-17 08:24:57 +0000.470772][2f7c] lipsync_debug: tsDelta -
timeDelta = 39
[013:063] [2025-06-17 08:24:57 +0000.573971][2f7e] (1/100)OnReceiveAudioFrame,
key_frame: 1, pkt_pts: 102324
[013:063] [2025-06-17 08:24:57 +0000.574130][2f7e] OnAudioFrameReady frame->pts=-
9223372036854775808 (1/100)
[013:150] [2025-06-17 08:24:57 +0000.661488][2f7c] lipsync_debug:displaying video
ts:187380 The current displayed video timestamp is:411591819
[013:156] [2025-06-17 08:24:57 +0000.666721][2f7d] The audio playback speed:100
(1/100)
[013:157] [2025-06-17 08:24:57 +0000.667993][2f7d] lipsync_debug: The current
played audio timestamp is:102324(1/50)
[013:443] [2025-06-17 08:24:57 +0000.954526][2f7f] Error(video_source.cc:430): wait
decoder a frame: 0
[013:565] [2025-06-17 08:24:58 +0000.76280][2f7c] lipsync_debug:remaining time:10
tsDelta - timeDelta:20
[013:565] [2025-06-17 08:24:58 +0000.76481][2f7c] lipsync_debug:result remaining
time:10
[013:813] [2025-06-17 08:24:58 +0000.324534][2f7c] lipsync_debug:displaying video
ts:247050 The current displayed video timestamp is:411592482
[013:848] [2025-06-17 08:24:58 +0000.359350][2f80]
Warning(audio_device_generic.cc:206): No Audio Processing is done for output datas.
[014:014] [2025-06-17 08:24:58 +0000.524996][2f7f] (1/100)OnReceiveVideoFrame,
key_frame: 0, pkt_pts: 308340pts ms:3.426e+06
[014:018] [2025-06-17 08:24:58 +0000.529044][2f7f] OnVideoFrameReady(1/200)
[014:019] [2025-06-17 08:24:58 +0000.529775][2f7c] operator() frame->pts-
9223372036854775808 queue_ size: 13 (1/200)
[014:077] [2025-06-17 08:24:58 +0000.588438][2f18] haveEnoughProcessedData
[Link]: 0
[014:403] [2025-06-17 08:24:58 +0000.914632][2f7f] webrtc common_video plane
old ..... (1/1000) new: 4001 delete: 3993 diff: 8
[014:419] [2025-06-17 08:24:58 +0000.929794][2f18] Run AGC when audioType = 0
[014:435] [2025-06-17 08:24:58 +0000.946360][2f7c] lipsync_debug:displaying video
ts:308340 The current displayed video timestamp is:411593104
[014:440] [2025-06-17 08:24:58 +0000.950787][2f7c] lipsync_debug: render a video
frame
[014:463] [2025-06-17 08:24:58 +0000.974672][2f7c] lipsync_debug:result remaining
time:0
[014:464] [2025-06-17 08:24:58 +0000.974824][2f7c] dynamic updated lipsync delay:0
[014:467] [2025-06-17 08:24:58 +0000.978397][2f7c] DriveRender working... (1/200)
[014:593] [2025-06-17 08:24:59 +0000.104647][2f7c]
lipsync_debug:lipsync_threadhold: lipsync_delta:0 tsDelta:40 timeDelta:36 last
video ts:319230 frame->pts:322830 pkt_dts:-9223372036854775808 pkt_pts:-
9223372036854775808
[014:594] [2025-06-17 08:24:59 +0000.105016][2f7c] lipsync_debug: tsDelta -
timeDelta = 4
[014:804] [2025-06-17 08:24:59 +0000.315266][2f7f] Error(video_source.cc:430): wait
decoder a frame: 0
[014:884] [2025-06-17 08:24:59 +0000.395575][2f80]
Warning(audio_device_generic.cc:206): No Audio Processing is done for output datas.
[015:128] [2025-06-17 08:24:59 +0000.639281][2f7c] lipsync_debug:displaying video
ts:367020 The current displayed video timestamp is:411593797
[015:367] [2025-06-17 08:24:59 +0000.877939][2f7e] (1/100)OnReceiveAudioFrame,
key_frame: 1, pkt_pts: 204692
[015:367] [2025-06-17 08:24:59 +0000.878123][2f7e] OnAudioFrameReady frame->pts=-
9223372036854775808 (1/100)
[015:444] [2025-06-17 08:24:59 +0000.954971][2f7d] The audio playback speed:100
(1/100)
[015:444] [2025-06-17 08:24:59 +0000.955125][2f7d] lipsync_debug: The current
played audio timestamp is:204692(1/50)
[015:620] [2025-06-17 08:25:00 +0000.131597][2f71] av_read_frame AVERROR_EOF
[015:702] [2025-06-17 08:25:00 +0000.213519][2f7c] lipsync_debug:remaining time:10
tsDelta - timeDelta:4
[015:703] [2025-06-17 08:25:00 +0000.213753][2f7c] lipsync_debug:result remaining
time:4
[015:780] [2025-06-17 08:25:00 +0000.291186][2f18] haveEnoughProcessedData
[Link]: 0
[015:815] [2025-06-17 08:25:00 +0000.325799][2f7c] lipsync_debug:displaying video
ts:428760 The current displayed video timestamp is:411594484
[015:863] [2025-06-17 08:25:00 +0000.373931][2f80]
Warning(audio_device_generic.cc:206): No Audio Processing is done for output datas.
[015:948] [2025-06-17 08:25:00 +0000.459569][2f71] OnReceiveEOF:
[015:949] [2025-06-17 08:25:00 +0000.459824][2f71] OnDecoderEOF time:411594618
enter.
[015:949] [2025-06-17 08:25:00 +0000.459979][2f71] OnDecoderEOF leave. expire time
= 0 ms
[015:949] [2025-06-17 08:25:00 +0000.460030][2f6f] CleanUp time:411594618 enter.
[015:949] [2025-06-17 08:25:00 +0000.460061][2f71] OnDecoderFinished:
OnDecoderFinished total decoder frames:192 this:0x742bc12500
[015:955] [2025-06-17 08:25:00 +0000.466431][2f6f] CleanUp leave. expire time = 6
ms
[015:955] [2025-06-17 08:25:00 +0000.466572][2f6f] clean up
[015:956] [2025-06-17 08:25:00 +0000.466709][2f6f] running_decoder_count:0max
count:2
[016:089] [2025-06-17 08:25:00 +0000.600183][2f7c] DriveRender working... (1/200)
[016:208] [2025-06-17 08:25:00 +0000.719328][2f7c]
lipsync_debug:lipsync_threadhold: lipsync_delta:0 tsDelta:32 timeDelta:26 last
video ts:466290 frame->pts:469170 pkt_dts:-9223372036854775808 pkt_pts:-
9223372036854775808
[016:208] [2025-06-17 08:25:00 +0000.719503][2f7c] lipsync_debug: tsDelta -
timeDelta = 6
[016:252] [2025-06-17 08:25:00 +0000.763682][2f7f] Error(video_source.cc:430): wait
decoder a frame: 0
[016:422] [2025-06-17 08:25:00 +0000.933235][2f18] Run AGC when audioType = 0
[016:422] [2025-06-17 08:25:00 +0000.933550][2f18]
AudioDeviceDataHandler::MixAndSendOutFrame
[016:513] [2025-06-17 08:25:01 +0000.23876][2f7c] lipsync_debug:displaying video
ts:496080 The current displayed video timestamp is:411595182
[016:880] [2025-06-17 08:25:01 +0000.391608][2f80]
Warning(audio_device_generic.cc:206): No Audio Processing is done for output datas.
[017:266] [2025-06-17 08:25:01 +0000.777324][2f7c] lipsync_debug:displaying video
ts:557190 The current displayed video timestamp is:411595935
[017:297] [2025-06-17 08:25:01 +0000.808666][2f7e] PullAudioFrame: PullFrame audio
finished.
[017:298] [2025-06-17 08:25:01 +0000.808908][2f7e] media player notify EOF, audio
PullFrameStatus is EOF
[017:328] [2025-06-17 08:25:01 +0000.839332][2f7e] Pull finished audio filter.
[017:328] [2025-06-17 08:25:01 +0000.839577][2f7e] media player notify EOF, audio
PullFrameStatus is EOF
[017:358] [2025-06-17 08:25:01 +0000.868830][2f7e] media player notify EOF, audio
PullFrameStatus is EOF
[017:388] [2025-06-17 08:25:01 +0000.899232][2f7e] media player notify EOF, audio
PullFrameStatus is EOF
[017:419] [2025-06-17 08:25:01 +0000.930132][2f7e] media player notify EOF, audio
PullFrameStatus is EOF
[017:449] [2025-06-17 08:25:01 +0000.960530][2f7e] media player notify EOF, audio
PullFrameStatus is EOF
[017:480] [2025-06-17 08:25:01 +0000.990889][2f7e] media player notify EOF, audio
PullFrameStatus is EOF
[017:491] [2025-06-17 08:25:02 +0000.2567][2f18] haveEnoughProcessedData
[Link]: 10
[017:510] [2025-06-17 08:25:02 +0000.21348][2f7e] media player notify EOF, audio
PullFrameStatus is EOF
[017:541] [2025-06-17 08:25:02 +0000.52134][2f7e] media player notify EOF, audio
PullFrameStatus is EOF
[017:572] [2025-06-17 08:25:02 +0000.82806][2f7e] media player notify EOF, audio
PullFrameStatus is EOF
[017:602] [2025-06-17 08:25:02 +0000.113362][2f7e] media player notify EOF, audio
PullFrameStatus is EOF
[017:633] [2025-06-17 08:25:02 +0000.143707][2f7e] media player notify EOF, audio
PullFrameStatus is EOF
[017:634] [2025-06-17 08:25:02 +0000.145422][2f7f] OnVideoTimer: media player
notify EOF, PullFrameStatus is EOF and render size is 0
[017:635] [2025-06-17 08:25:02 +0000.145982][2f7f] Stop:
[017:637] [2025-06-17 08:25:02 +0000.147877][2f7c] operator(): Video Render
stopped.
[017:637] [2025-06-17 08:25:02 +0000.148221][2f7f] Stop:
[017:638] [2025-06-17 08:25:02 +0000.149245][2f7d] DeviceStop:
audioDevice_:0x7417fd6000
[017:638] [2025-06-17 08:25:02 +0000.149368][2f7d] OpenSlesOutput:Stop playout
[017:644] [2025-06-17 08:25:02 +0000.154878][2f7d] DeviceStop: Done
[017:644] [2025-06-17 08:25:02 +0000.155308][2f7d] Warning(audio_playback.cc:730):
operator(): Audio playback stopped.
[017:645] [2025-06-17 08:25:02 +0000.155728][2f7f] to reset filter graph
[017:645] [2025-06-17 08:25:02 +0000.155805][2f7f] RemoveVideoBackGroud: hava not
add video backgroud
[017:645] [2025-06-17 08:25:02 +0000.155929][2f7f] UnbindInputFilter 0x74205ab658
this 0x742bbe7aa0
[017:645] [2025-06-17 08:25:02 +0000.156019][2f7f] ClearAllSource: remove source
filter, sourceid: 0x742bc12500
[017:645] [2025-06-17 08:25:02 +0000.156077][2f7f] DestoryDecoderByVideoSource
time:411596314 enter.
[017:645] [2025-06-17 08:25:02 +0000.156139][2f7f] ~VideoBindDecoder time:411596314
enter.
[017:645] [2025-06-17 08:25:02 +0000.156367][2f7f] CleanUp time:411596314 enter.
[017:646] [2025-06-17 08:25:02 +0000.156908][2f7f] CleanUp leave. expire time = 1
ms
[017:646] [2025-06-17 08:25:02 +0000.156988][2f7f] CleanUp time:411596315 enter.
[017:646] [2025-06-17 08:25:02 +0000.157524][2f7f] CleanUp leave. expire time = 0
ms
[017:648] [2025-06-17 08:25:02 +0000.158957][2f7f] ~VideoBindDecoder leave. expire
time = 3 ms
[017:648] [2025-06-17 08:25:02 +0000.159067][2f7f] DestoryDecoderByVideoSource
leave. expire time = 3 ms
[017:648] [2025-06-17 08:25:02 +0000.159163][2f7f] UnbindInputFilter 0x74205ab418
this 0x74205ab658
[017:648] [2025-06-17 08:25:02 +0000.159258][2f7f] UnbindInputFilter 0x74205ab358
this 0x74205ab418
[017:648] [2025-06-17 08:25:02 +0000.159356][2f7f] UnbindInputFilter 0x742bc12720
this 0x74205ab358
[017:648] [2025-06-17 08:25:02 +0000.159443][2f7f] UnbindInputFilter 0x74205ab598
this 0x74205ab718
[017:648] [2025-06-17 08:25:02 +0000.159544][2f7f] UnbindInputFilter 0x74205ab4d8
this 0x74205ab598
[017:648] [2025-06-17 08:25:02 +0000.159626][2f7f] UnbindInputFilter 0x742bc12720
this 0x74205ab4d8
[017:649] [2025-06-17 08:25:02 +0000.159807][2f7f] to reset filter graph clear end
[017:649] [2025-06-17 08:25:02 +0000.159870][2f7f] AddVideoSource: add video
source:
/data/user/0/[Link]/no_backup/milive//record_video_411581497.mp4,
delay: 0
[017:649] [2025-06-17 08:25:02 +0000.159954][2f7f] CreateDecoderByVideoSource
time:411596318 enter.
[017:651] [2025-06-17 08:25:02 +0000.161774][2f7f] running_decoder_count:0max
count:2
[017:651] [2025-06-17 08:25:02 +0000.161931][2f7f] Start decoding file
/data/user/0/[Link]/no_backup/milive//record_video_411581497.mp4,
sync_mode: 1, seek_pos: 0, delay: 0, this:0x7426243400
[017:653] [2025-06-17 08:25:02 +0000.164092][2fb4] FFMpeg=>
[mov,mp4,m4a,3gp,3g2,mj2 @ 0x742620c800] Current FFmpeg version git-2021-06-16-
97cea6f
[017:867] [2025-06-17 08:25:02 +0000.377951][2fb4] OnStreamInfoFound: video
duration_: 6589
[017:870] [2025-06-17 08:25:02 +0000.381217][2f7f] start decoder
[017:870] [2025-06-17 08:25:02 +0000.381369][2f7f] CreateDecoderByVideoSource
leave. expire time = 221 ms
[017:870] [2025-06-17 08:25:02 +0000.381474][2f7f] BindInputFilter 0x74264223a0
this 0x74262ceb18
[017:870] [2025-06-17 08:25:02 +0000.381586][2f7f] BindInputFilter 0x74262ceb18
this 0x74262cee18
[017:871] [2025-06-17 08:25:02 +0000.381755][2f7f] BindInputFilter 0x74264223a0
this 0x74262ceed8
[017:871] [2025-06-17 08:25:02 +0000.381893][2f7f] BindInputFilter 0x74262ceed8
this 0x74262cef98
[017:871] [2025-06-17 08:25:02 +0000.381966][2f7f] AddVideoSource: source filter
list is empty, add first:
/data/user/0/[Link]/no_backup/milive//record_video_411581497.mp4
[017:871] [2025-06-17 08:25:02 +0000.382054][2f7f] BindInputFilter 0x74262cee18
this 0x74262cf058
[017:871] [2025-06-17 08:25:02 +0000.382174][2f7f] BindInputFilter 0x74262cf058
this 0x742bbe7aa0
[017:871] [2025-06-17 08:25:02 +0000.382258][2f7f] BindInputFilter 0x74262cef98
this 0x74262cf118
[017:871] [2025-06-17 08:25:02 +0000.382338][2f7f] AddVideoSource: END add video
source:
/data/user/0/[Link]/no_backup/milive//record_video_411581497.mp4
[017:871] [2025-06-17 08:25:02 +0000.382411][2f7f] to reset filter graph end
[017:871] [2025-06-17 08:25:02 +0000.382495][2f7f] Start:
[017:872] [2025-06-17 08:25:02 +0000.383002][2f7c] operator(): video render
started.
[017:872] [2025-06-17 08:25:02 +0000.383202][2f7f] Start:
[017:873] [2025-06-17 08:25:02 +0000.383837][2f7d] Reset: volume estimator reset
frequency : 44100 history size(ms): 5000
[017:873] [2025-06-17 08:25:02 +0000.383976][2f7d] Reset: history total size: 98
[017:873] [2025-06-17 08:25:02 +0000.384054][2f7d] DeviceStart:
audioDevice_:0x7417fd6000
[017:873] [2025-06-17 08:25:02 +0000.384140][2f7d] DeviceStart: time profile
playout init before
[017:873] [2025-06-17 08:25:02 +0000.384228][2f7d] DeviceStart: time profile
playout init end
[017:873] [2025-06-17 08:25:02 +0000.384313][2f7d] OpenSlesOutput:Start playout
[017:875] [2025-06-17 08:25:02 +0000.385840][2f7d] Create the opensl output player.
streamtype before:0
[017:875] [2025-06-17 08:25:02 +0000.385959][2f7d] Create the opensl output player.
streamtype after:3
[017:879] [2025-06-17 08:25:02 +0000.390653][2fb5] NO get frame from decoder
[017:883] [2025-06-17 08:25:02 +0000.393766][2fb5] NO get frame from decoder
[017:884] [2025-06-17 08:25:02 +0000.395264][2fb5] NO get frame from decoder
[017:887] [2025-06-17 08:25:02 +0000.398190][2fb5] NO get frame from decoder
[017:893] [2025-06-17 08:25:02 +0000.404187][2f7d] Enqueue opensl buffer size:1764
[017:898] [2025-06-17 08:25:02 +0000.409229][2fb5] NO get frame from decoder
[017:905] [2025-06-17 08:25:02 +0000.416280][2fb5] NO get frame from decoder
[017:908] [2025-06-17 08:25:02 +0000.419107][2fb5] NO get frame from decoder
[017:911] [2025-06-17 08:25:02 +0000.422100][2fb5] NO get frame from decoder
[017:919] [2025-06-17 08:25:02 +0000.430482][2f7d] DeviceStart: time profile
playout all end
[017:920] [2025-06-17 08:25:02 +0000.430677][2f7d] operator(): Audio playback
started.
[017:922] [2025-06-17 08:25:02 +0000.432839][2f7e] Pull audio failed.(wait video!)
[017:924] [2025-06-17 08:25:02 +0000.435394][2f7c] DriveRender working... (1/200)
[017:925] [2025-06-17 08:25:02 +0000.435688][2f7e]
Warning(media_filter_player.cc:409): media pull audio frame failed:4
[017:929] [2025-06-17 08:25:02 +0000.440373][2f7d] First audio frame rendering
[017:953] [2025-06-17 08:25:02 +0000.463741][2f7c] lipsync_debug: First video frame
rendering.
[018:041] [2025-06-17 08:25:02 +0000.552471][2fc8]
Warning(audio_device_generic.cc:206): No Audio Processing is done for output datas.
[018:079] [2025-06-17 08:25:02 +0000.590234][2f7f] (1/100)OnReceiveVideoFrame,
key_frame: 0, pkt_pts: 26100pts ms:290000
[018:091] [2025-06-17 08:25:02 +0000.602277][2f7f] OnVideoFrameReady(1/200)
[018:092] [2025-06-17 08:25:02 +0000.602743][2f7c] operator() frame->pts-
9223372036854775808 queue_ size: 4 (1/200)
[018:098] [2025-06-17 08:25:02 +0000.608981][2f7c] lipsync_debug:remaining time:10
tsDelta - timeDelta:15
[018:098] [2025-06-17 08:25:02 +0000.609116][2f7c] lipsync_debug:result remaining
time:10
[018:122] [2025-06-17 08:25:02 +0000.633084][2f7e] (1/100)OnReceiveAudioFrame,
key_frame: 1, pkt_pts: 16356
[018:122] [2025-06-17 08:25:02 +0000.633201][2f7e] OnAudioFrameReady frame->pts=-
9223372036854775808 (1/100)
[018:141] [2025-06-17 08:25:02 +0000.652326][2f7c]
lipsync_debug:lipsync_threadhold: lipsync_delta:0 tsDelta:28 timeDelta:28 last
video ts:15840 frame->pts:18360 pkt_dts:-9223372036854775808 pkt_pts:-
9223372036854775808
[018:141] [2025-06-17 08:25:02 +0000.652476][2f7c] lipsync_debug: tsDelta -
timeDelta = 0
[018:175] [2025-06-17 08:25:02 +0000.691842][2f7f] Error(video_source.cc:430): wait
decoder a frame: 0
[018:202] [2025-06-17 08:25:02 +0000.712987][2f7d] The audio playback speed:100
(1/100)
[018:202] [2025-06-17 08:25:02 +0000.713135][2f7d] lipsync_debug: The current
played audio timestamp is:16356(1/50)
[018:227] [2025-06-17 08:25:02 +0000.738747][2f7c] lipsync_debug:displaying video
ts:26100 The current displayed video timestamp is:411596896
[018:240] [2025-06-17 08:25:02 +0000.751672][2f7c] lipsync_debug: render a video
frame
[018:303] [2025-06-17 08:25:02 +0000.814655][2f7c] lipsync_debug:result remaining
time:0
[018:304] [2025-06-17 08:25:02 +0000.814825][2f7c] dynamic updated lipsync delay:0
[018:421] [2025-06-17 08:25:02 +0000.931886][2f18] Run AGC when audioType = 0
[018:847] [2025-06-17 08:25:03 +0000.358132][2f7e] FilterPipeline2::OnAudioFrame
pts 48098 last_audio_timestamp_ 1090.66
[018:985] [2025-06-17 08:25:03 +0000.495972][2f7c] lipsync_debug:displaying video
ts:91350 The current displayed video timestamp is:411597654
[019:081] [2025-06-17 08:25:03 +0000.592477][2fc8]
Warning(audio_device_generic.cc:206): No Audio Processing is done for output datas.
[019:170] [2025-06-17 08:25:03 +0000.681144][2f7f] webrtc common_video plane
old ..... (1/1000) new: 5001 delete: 4993 diff: 8
[019:211] [2025-06-17 08:25:03 +0000.721954][2f18] haveEnoughProcessedData
[Link]: 0
[019:486] [2025-06-17 08:25:03 +0000.997572][2f7f] Error(video_source.cc:430): wait
decoder a frame: 0
[019:736] [2025-06-17 08:25:04 +0000.247526][2f7c] lipsync_debug:displaying video
ts:151110 The current displayed video timestamp is:411598405
[019:776] [2025-06-17 08:25:04 +0000.287683][2f7c] DriveRender working... (1/200)
[020:005] [2025-06-17 08:25:04 +0000.516234][2f7f]
Warning(media_filter_player.cc:442): media pull video error, PullFrameStatus is 4
[020:010] [2025-06-17 08:25:04 +0000.522443][2f7f] video frame wait audio frame:
last_video_timestamp:2393 last_audio_timestamp:2274.29
[020:071] [2025-06-17 08:25:04 +0000.582583][2fc8]
Warning(audio_device_generic.cc:206): No Audio Processing is done for output datas.
[020:083] [2025-06-17 08:25:04 +0000.594365][2f7c]
lipsync_debug:lipsync_threadhold: lipsync_delta:0 tsDelta:32 timeDelta:33 last
video ts:181170 frame->pts:184050 pkt_dts:-9223372036854775808 pkt_pts:-
9223372036854775808
[020:083] [2025-06-17 08:25:04 +0000.594520][2f7c] lipsync_debug: tsDelta -
timeDelta = -1
[020:371] [2025-06-17 08:25:04 +0000.882153][2f7e] (1/100)OnReceiveAudioFrame,
key_frame: 1, pkt_pts: 118724
[020:371] [2025-06-17 08:25:04 +0000.882383][2f7e] OnAudioFrameReady frame->pts=-
9223372036854775808 (1/100)
[020:383] [2025-06-17 08:25:04 +0000.893785][2f7c] lipsync_debug:displaying video
ts:211050 The current displayed video timestamp is:411599052
[020:404] [2025-06-17 08:25:04 +0000.914715][2f7d] The audio playback speed:100
(1/100)
[020:404] [2025-06-17 08:25:04 +0000.914991][2f7d] lipsync_debug: The current
played audio timestamp is:118724(1/50)
[020:418] [2025-06-17 08:25:04 +0000.928843][2f19] webrtc device:Handle the data
from samplesPerSec recording sample rate:48000 nSamples:480 nBytesPerSample:#
nChannels:#
[020:418] [2025-06-17 08:25:04 +0000.929018][2f19] _deviceSampleRate:48000
[020:419] [2025-06-17 08:25:04 +0000.930288][2f18] Run AGC when audioType = 0
[020:419] [2025-06-17 08:25:04 +0000.930435][2f18]
AudioDeviceDataHandler::MixAndSendOutFrame
[020:755] [2025-06-17 08:25:05 +0000.266437][2f7c] lipsync_debug:remaining time:10
tsDelta - timeDelta:27
[020:755] [2025-06-17 08:25:05 +0000.266637][2f7c] lipsync_debug:result remaining
time:10
[020:854] [2025-06-17 08:25:05 +0000.365149][2f7f] Error(video_source.cc:430): wait
decoder a frame: 0
[020:955] [2025-06-17 08:25:05 +0000.466012][2f18] haveEnoughProcessedData
[Link]: 0
[021:068] [2025-06-17 08:25:05 +0000.579072][2f7c] lipsync_debug:displaying video
ts:272340 The current displayed video timestamp is:411599737
[021:081] [2025-06-17 08:25:05 +0000.592141][2fc8]
Warning(audio_device_generic.cc:206): No Audio Processing is done for output datas.
[021:210] [2025-06-17 08:25:05 +0000.720963][263e]
Java_com_xiaomi_recordmediaprocess_EffectMediaPlayer_DestructMediaPlayerJni:
[021:214] [2025-06-17 08:25:05 +0000.724945][2f7d] Stop:
[021:214] [2025-06-17 08:25:05 +0000.725336][2f7c] operator(): Video Render
stopped.
[021:215] [2025-06-17 08:25:05 +0000.726407][2f7d] Stop:
[021:215] [2025-06-17 08:25:05 +0000.726571][2f7d] DeviceStop:
audioDevice_:0x7417fd6000
[021:215] [2025-06-17 08:25:05 +0000.726640][2f7d] OpenSlesOutput:Stop playout
[021:218] [2025-06-17 08:25:05 +0000.729083][2f7d] DeviceStop: Done
[021:218] [2025-06-17 08:25:05 +0000.729356][2f7d] Warning(audio_playback.cc:730):
operator(): Audio playback stopped.
[021:218] [2025-06-17 08:25:05 +0000.729454][2f7d] operator(): Stop now!
[021:221] [2025-06-17 08:25:05 +0000.731730][263e] Stop:
[021:221] [2025-06-17 08:25:05 +0000.731915][2f7d] Warning(audio_playback.cc:715):
operator(): Audio playback not started. Operation cancelled.
[021:221] [2025-06-17 08:25:05 +0000.732199][263e] DeviceRelease:
audioDevice_:0x7417fd6000
[021:221] [2025-06-17 08:25:05 +0000.732264][263e] OpenSlesOutput:Stop playout
[021:221] [2025-06-17 08:25:05 +0000.732350][263e] DeviceRelease: Release the
webrtc device object.
[021:227] [2025-06-17 08:25:05 +0000.737783][263e] OpenSlesOutput destruct.
[021:227] [2025-06-17 08:25:05 +0000.737998][263e] DeviceRelease: Done
[021:228] [2025-06-17 08:25:05 +0000.739609][263e] Stop:
[021:229] [2025-06-17 08:25:05 +0000.739922][2f7c] Warning(video_render.cc:349):
operator(): video render not started. Operation cancelled.
[021:248] [2025-06-17 08:25:05 +0000.758889][263e] global uninited!
[021:256] [2025-06-17 08:25:05 +0000.767510][263e]
Java_com_xiaomi_recordmediaprocess_MediaEffectGraph_DestructMediaEffectGraphJni:
[021:257] [2025-06-17 08:25:05 +0000.767741][263e] ~MediaFilterGraph:
MediaFilterGraph destruct
[021:257] [2025-06-17 08:25:05 +0000.767814][263e] RemoveVideoBackGroud: hava not
add video backgroud
[021:257] [2025-06-17 08:25:05 +0000.767947][263e] UnbindInputFilter 0x74262cf058
this 0x742bbe7aa0
[021:257] [2025-06-17 08:25:05 +0000.768034][263e] ClearAllSource: remove source
filter, sourceid: 0x7426422180
[021:257] [2025-06-17 08:25:05 +0000.768099][263e] DestoryDecoderByVideoSource
time:411599926 enter.
[021:257] [2025-06-17 08:25:05 +0000.768175][263e] ~VideoBindDecoder time:411599926
enter.
[021:258] [2025-06-17 08:25:05 +0000.768946][263e] CleanUp time:411599927 enter.
[021:329] [2025-06-17 08:25:05 +0000.840113][263e] CleanUp leave. expire time = 71
ms
[021:329] [2025-06-17 08:25:05 +0000.840260][263e] CleanUp time:411599998 enter.
[021:330] [2025-06-17 08:25:05 +0000.840762][263e] CleanUp leave. expire time = 1
ms
[021:331] [2025-06-17 08:25:05 +0000.841748][263e] ~VideoBindDecoder leave. expire
time = 74 ms
[021:331] [2025-06-17 08:25:05 +0000.841864][263e] DestoryDecoderByVideoSource
leave. expire time = 74 ms
[021:331] [2025-06-17 08:25:05 +0000.841960][263e] UnbindInputFilter 0x74262cee18
this 0x74262cf058
[021:331] [2025-06-17 08:25:05 +0000.842056][263e] UnbindInputFilter 0x74262ceb18
this 0x74262cee18
[021:331] [2025-06-17 08:25:05 +0000.842164][263e] UnbindInputFilter 0x74264223a0
this 0x74262ceb18
[021:331] [2025-06-17 08:25:05 +0000.842270][263e] UnbindInputFilter 0x74262cef98
this 0x74262cf118
[021:331] [2025-06-17 08:25:05 +0000.842366][263e] UnbindInputFilter 0x74262ceed8
this 0x74262cef98
[021:331] [2025-06-17 08:25:05 +0000.842484][263e] UnbindInputFilter 0x74264223a0
this 0x74262ceed8
[021:332] [2025-06-17 08:25:05 +0000.843617][263e] ~GLESContext:
[021:334] [2025-06-17 08:25:05 +0000.844800][263e] GLESContext destruct finish.
[021:334] [2025-06-17 08:25:05 +0000.844920][263e] filter: filter pipeline destroy
this: 0x742bbe7a00
[022:423] [2025-06-17 08:25:06 +0000.934540][2f18] Run AGC when audioType = 0
[022:676] [2025-06-17 08:25:07 +0000.187576][2f18] haveEnoughProcessedData
[Link]: 0
[022:835] [2025-06-17 08:25:07 +0000.346487][2662]
Java_com_xiaomi_recordmediaprocess_MediaEffectCamera_DestructMediaEffectCameraJni:
[022:837] [2025-06-17 08:25:07 +0000.348059][2662] ~MediaFilterCamera
time:411601506 enter.
[022:837] [2025-06-17 08:25:07 +0000.348212][2662] StopPullFrameAndWriteMp4
time:411601506 enter.
[022:838] [2025-06-17 08:25:07 +0000.349138][2f13] stop recording
[022:838] [2025-06-17 08:25:07 +0000.349230][2f13] we have stopped recording before
[022:838] [2025-06-17 08:25:07 +0000.349391][2662] StopPullFrameAndWriteMp4 leave.
expire time = 1 ms
[022:839] [2025-06-17 08:25:07 +0000.350296][2662] DestroyPipelineAndFilters
time:411601508 enter.
[022:839] [2025-06-17 08:25:07 +0000.350415][2662] DestroyPipelineAndFilters
leave. expire time = 0 ms
[022:839] [2025-06-17 08:25:07 +0000.350474][2662] AppDeviceManagerStopMic
[022:839] [2025-06-17 08:25:07 +0000.350569][2662] AppDeviceManagerStopMic::mic
status is on
[022:841] [2025-06-17 08:25:07 +0000.352465][2662] Try to stop webrtc device.
[022:843] [2025-06-17 08:25:07 +0000.353739][2662] Set record state to
[Link]
[022:946] [2025-06-17 08:25:07 +0000.457424][2662] Try to destory the
[Link]
[023:146] [2025-06-17 08:25:07 +0000.657699][2662] DestroyAudioRecorder:
[023:147] [2025-06-17 08:25:07 +0000.657858][2662] Cleanup the buffer queue in the
recorder.
[023:147] [2025-06-17 08:25:07 +0000.657919][2662] Destroy the recorder.
[023:148] [2025-06-17 08:25:07 +0000.659073][2662] StopRecording finished.
[023:148] [2025-06-17 08:25:07 +0000.659167][2662] The stop recording success.
[023:148] [2025-06-17 08:25:07 +0000.659237][2662]
AudioDeviceDataHandler::StopMicProcess
[023:150] [2025-06-17 08:25:07 +0000.661099][2662] AppDeviceManager stop.
[023:151] [2025-06-17 08:25:07 +0000.662136][2662] Rlease the webrtc device object.
[023:154] [2025-06-17 08:25:07 +0000.665129][2662] OpenSlesInput destruct.
[023:154] [2025-06-17 08:25:07 +0000.665312][2662] OpenSlesOutput destruct.
[023:160] [2025-06-17 08:25:07 +0000.670834][2662] EventDispatchServerScope
destruct
[023:160] [2025-06-17 08:25:07 +0000.670988][2662]
Warning([Link]): PhysicalSocketServer destruct
[023:161] [2025-06-17 08:25:07 +0000.672251][2662] ~AudioDeviceDataHandler
[023:163] [2025-06-17 08:25:07 +0000.674036][2662] AppDeviceManagerDestruct.
[023:163] [2025-06-17 08:25:07 +0000.674147][2662] ~AppDeviceManager:
[023:163] [2025-06-17 08:25:07 +0000.674266][2662] ~CpuOverloadDetect
time:411601832 enter.
[023:164] [2025-06-17 08:25:07 +0000.674850][2662] ~CpuOverloadDetect leave.
expire time = 1 ms
[023:233] [2025-06-17 08:25:07 +0000.744044][2662] Destruct BeautifyReader begin...
[023:233] [2025-06-17 08:25:07 +0000.744200][2662] Destruct BeautifyReader done.
[023:233] [2025-06-17 08:25:07 +0000.744281][2662] ~MediaFilterCamera leave.
expire time = 396 ms
[023:236] [2025-06-17 08:25:07 +0000.747302][2662] ~GLESContext:
[023:243] [2025-06-17 08:25:07 +0000.754260][2662] GLESContext destruct finish.
[023:243] [2025-06-17 08:25:07 +0000.754551][2662] ~RecordingSessionInternalSimple:
RecordingSessionInternalSimple::~RecordingSessionInternalSimple
[023:244] [2025-06-17 08:25:07 +0000.755494][2662] global uninited!
[023:253] [2025-06-17 08:25:07 +0000.764455][2662] clear AppID 50011
[023:254] [2025-06-17 08:25:07 +0000.764729][2662] UnRegister JVM for Xplatform
util
[023:255] [2025-06-17 08:25:07 +0000.765988][2662] Dispose::unregister webrtc video
engine
[023:255] [2025-06-17 08:25:07 +0000.766073][2662] Init the android object with
jvm:0x0 env:0x0 context:0x0
[023:255] [2025-06-17 08:25:07 +0000.766166][2662] SetAndroidMediaCodecObjects
time:411601924 enter.
[023:255] [2025-06-17 08:25:07 +0000.766242][2662] ClearAndroidMediaCodecObjects
time:411601924 enter.
[023:255] [2025-06-17 08:25:07 +0000.766326][2662] ClearAndroidMediaCodecObjects
leave. expire time = 0 ms
[023:255] [2025-06-17 08:25:07 +0000.766403][2662] SetAndroidMediaCodecObjects
leave. expire time = 0 ms
[023:255] [2025-06-17 08:25:07 +0000.766483][2662] SetAndroidMediaCodecObjects
time:411601924 enter.
[023:255] [2025-06-17 08:25:07 +0000.766559][2662] SetAndroidMediaCodecObjects:
SetAndroidMediaCodecObjects:: jvm :0x0
[023:255[000:062] [2025-08-25 05:35:47 +0000.725691][2cdc] Log to
file:/storage/emulated/0/voip-data/[Link]/[Link] start time:2025-08-
25 05:35:47 +0000
[000:062] [2025-08-25 05:35:47 +0000.725756][2cdc] set AppID=50011 old AppID=-1
[000:062] [2025-08-25 05:35:47 +0000.725793][2cdc] Init the android object with
jvm:0xb400007878621380 env:0x785a8c3680 context:0x7803f8d2e8
[000:063] [2025-08-25 05:35:47 +0000.725840][2cdc] SetAndroidMediaCodecObjects
time:203700383 enter.
[000:063] [2025-08-25 05:35:47 +0000.725881][2cdc] SetAndroidMediaCodecObjects
leave. expire time = 0 ms
[000:063] [2025-08-25 05:35:47 +0000.725921][2cdc] SetAndroidMediaCodecObjects
time:203700383 enter.
[000:063] [2025-08-25 05:35:47 +0000.725955][2cdc] SetAndroidMediaCodecObjects:
SetAndroidMediaCodecObjects:: jvm :0xb400007878621380
[000:063] [2025-08-25 05:35:47 +0000.725995][2cdc] SetAndroidMediaCodecObjects:
SetAndroidMediaCodecObjects success g_jvm_:0xb400007878621380 address:0x77a9ecb760
[000:063] [2025-08-25 05:35:47 +0000.726046][2cdc] SetAndroidMediaCodecObjects:
SetAndroidMediaCodecObjects success g_jvm_encoder_:0xb400007878621380
address:0x77a9ecb760
[000:063] [2025-08-25 05:35:47 +0000.726085][2cdc] SetAndroidMediaCodecObjects
leave. expire time = 0 ms
[000:063] [2025-08-25 05:35:47 +0000.726135][2cdc] Set the android objects with
jvm:0xb400007878621380 env:0x785a8c3680 context:0x7803f8d2e8
[000:065] [2025-08-25 05:35:47 +0000.728371][2cdc] audio jni debug :manager
SetAndroidAudioDeviceObjects env:0x785a8c3680
[000:065] [2025-08-25 05:35:47 +0000.728459][2cdc] SystemUtil Init done
[000:069] [2025-08-25 05:35:47 +0000.732350][2cdc]
Java_com_xiaomi_recordmediaprocess_MediaEffectCamera_ConstructMediaEffectCameraJni:
[000:071] [2025-08-25 05:35:47 +0000.734683][2cdc] MediaFilterCamera
[000:071] [2025-08-25 05:35:47 +0000.734751][2cdc] RecordingSessionInternalSimple:
Create session internal:720 X 1280 fps:30
[000:072] [2025-08-25 05:35:47 +0000.734893][2cdc] createSessionInternal: create
session with video size:720 X 1280 fps:30 bitrate:14680064
[000:072] [2025-08-25 05:35:47 +0000.734943][2cdc] Recording session using default
bitrate support by app:14680064
[000:072] [2025-08-25 05:35:47 +0000.734933][53e1] Error([Link]): Set the
pthread name failed with error:34 name:Thread 0x0x77d488e5c0
[000:072] [2025-08-25 05:35:47 +0000.735152][53e1] setAudioChannelCount_w:
RecordingSessionInternalSimple:set the audio channel count:2
[000:072] [2025-08-25 05:35:47 +0000.735241][2cdc] setAudioSampleRate:
RecordingSessionInternalSimple:set the audio bitrate:44100
[000:073] [2025-08-25 05:35:47 +0000.735881][2cdc] Error([Link]): Open the file
failed. error:2
[000:073] [2025-08-25 05:35:47 +0000.735925][2cdc]
Error(key_value_pair_store.cc:130): load the data failed from: voip_config.ini
[000:073] [2025-08-25 05:35:47 +0000.735979][2cdc] The device model: 220333qag
usingSoftwareAEC value: 0
[000:075] [2025-08-25 05:35:47 +0000.738217][2cdc] Error([Link]): Open the file
failed. error:2
[000:075] [2025-08-25 05:35:47 +0000.738271][2cdc]
Error(key_value_pair_store.cc:130): load the data failed from:
/storage/emulated/0/voip-data/[Link]/voip_config.ini
[000:075] [2025-08-25 05:35:47 +0000.738316][2cdc] The device model: 220333qag
usingHardwareAEC value: 0
[000:075] [2025-08-25 05:35:47 +0000.738352][2cdc] The machine device: 220333qag
usingHardwareAEC value: 0
[000:075] [2025-08-25 05:35:47 +0000.738391][2cdc] Using Default AEC type: software
AEC
[000:076] [2025-08-25 05:35:47 +0000.739622][2cdc] The device model: 220333qag enum
value: 0
[000:077] [2025-08-25 05:35:47 +0000.740212][2cdc] GetMachineModel is 220333QAG
[000:077] [2025-08-25 05:35:47 +0000.740272][2cdc] GetMachineInfo: 220333QAG
[000:077] [2025-08-25 05:35:47 +0000.740327][2cdc] Construct BeautifyReader
begin...
[000:077] [2025-08-25 05:35:47 +0000.740366][2cdc] dumpStickerRgba:0
dumpStickerYuv:0
[000:077] [2025-08-25 05:35:47 +0000.740407][2cdc] Construct BeautifyReader done.
[000:081] [2025-08-25 05:35:47 +0000.744313][2cdc] AppDeviceManagerStartCamera::The
result of start thread is: 1 micOn:0
[000:081] [2025-08-25 05:35:47 +0000.744343][53e4] Error([Link]): Set the
pthread name failed with error:34 name:Thread 0x0x78676bb7a0
[000:081] [2025-08-25 05:35:47 +0000.744427][2cdc] AppDeviceManager telnet server
for statistics started......
[000:082] [2025-08-25 05:35:47 +0000.744917][2cdc] CpuOverloadDetect time:203700402
enter.
[000:082] [2025-08-25 05:35:47 +0000.745038][2cdc] CpuOverloadDetect leave. expire
time = 0 ms
[000:082] [2025-08-25 05:35:47 +0000.745173][53e5] Error([Link]): Set the
pthread name failed with error:34 name:Thread 0x0x78676c9280
[000:082] [2025-08-25 05:35:47 +0000.745799][2cdc] AppDeviceMana
GetOpenslVoiceMode before get setting: 1
[000:083] [2025-08-25 05:35:47 +0000.745846][2cdc] AppDeviceMana
GetOpenslVoiceMode after get setting: 1
[000:085] [2025-08-25 05:35:47 +0000.748732][2cdc] AudioManagerAndroid
getProperty:[Link].OUTPUT_SAMPLE_RATE
[000:086] [2025-08-25 05:35:47 +0000.749524][2cdc] AudioManagerAndroid
getProperty:[Link].OUTPUT_FRAMES_PER_BUFFER
[000:087] [2025-08-25 05:35:47 +0000.750062][2cdc] CreatePlatformSpecificObjects:
[000:087] [2025-08-25 05:35:47 +0000.750115][2cdc] audio device use opensle input
and opensl output
[000:087] [2025-08-25 05:35:47 +0000.750172][2cdc] Create OpenSLES output module
with java VM support.
[000:087] [2025-08-25 05:35:47 +0000.750338][2cdc] AudioManagerAndroid
getProperty:[Link].OUTPUT_SAMPLE_RATE
[000:087] [2025-08-25 05:35:47 +0000.750491][2cdc] AudioManagerAndroid
getProperty:[Link].OUTPUT_FRAMES_PER_BUFFER
[000:087] [2025-08-25 05:35:47 +0000.750670][2cdc] Create OpenSLES output module
with buffer num:1
[000:087] [2025-08-25 05:35:47 +0000.750825][2cdc] AudioManagerAndroid
getProperty:[Link].OUTPUT_SAMPLE_RATE
[000:088] [2025-08-25 05:35:47 +0000.751012][2cdc] AudioManagerAndroid
getProperty:[Link].OUTPUT_FRAMES_PER_BUFFER
[000:088] [2025-08-25 05:35:47 +0000.751156][2cdc] Create OpenSLES input module
with java VM support.
[000:088] [2025-08-25 05:35:47 +0000.751199][2cdc] Create OpenSLES input module
with buffer num:1
[000:088] [2025-08-25 05:35:47 +0000.751279][2cdc] Error([Link]): Init the
output and input for audio device template.
[000:088] [2025-08-25 05:35:47 +0000.751319][2cdc] Init the output device.
[000:088] [2025-08-25 05:35:47 +0000.751345][2cdc] Init the opensl input.
[000:088] [2025-08-25 05:35:47 +0000.751386][2cdc] AppDeviceManager get setting
samplerate: 0
[000:088] [2025-08-25 05:35:47 +0000.751823][2cdc] The device model: 220333qag enum
value: 0
[000:089] [2025-08-25 05:35:47 +0000.752474][2cdc] The device model: 220333qag enum
value: 0
[000:089] [2025-08-25 05:35:47 +0000.752514][2cdc] Set the sample rate to be:48000
[000:089] [2025-08-25 05:35:47 +0000.752555][2cdc] Enable the recording stereo:0
[000:089] [2025-08-25 05:35:47 +0000.752599][2cdc] Set the playout as stereo:1
[000:089] [2025-08-25 05:35:47 +0000.752640][2cdc] Init the microphone.
[000:091] [2025-08-25 05:35:47 +0000.753889][2cdc] Update the recording sample rate
to be: 48000
[000:091] [2025-08-25 05:35:47 +0000.753937][2cdc] Init the speaker.
[000:091] [2025-08-25 05:35:47 +0000.753980][2cdc] Low latency buffer size:144 low
sample rate:48000
[000:091] [2025-08-25 05:35:47 +0000.754270][2cdc] Using 1 x 10ms for an audio
frame.
[000:094] [2025-08-25 05:35:47 +0000.757612][2cdc] Error(splitting_filter.cc:26):
Splitting filter only support two or three bands now.
[000:094] [2025-08-25 05:35:47 +0000.757758][2cdc] Error(splitting_filter.cc:26):
Splitting filter only support two or three bands now.
[000:095] [2025-08-25 05:35:47 +0000.757862][2cdc] Error(splitting_filter.cc:26):
Splitting filter only support two or three bands now.
[000:100] [2025-08-25 05:35:47 +0000.762947][2cdc] The device model:220333qag
[000:100] [2025-08-25 05:35:47 +0000.763050][2cdc] speaker output factor:100
defaultFactor: 100
[000:100] [2025-08-25 05:35:47 +0000.763081][2cdc] headset output factor:100
defaultFactor: 100
[000:100] [2025-08-25 05:35:47 +0000.763569][2cdc] AppDeviceManagerStart finished.
[000:100] [2025-08-25 05:35:47 +0000.763613][2cdc] AppDeviceManagerStartMic::mic
status is off
[000:100] [2025-08-25 05:35:47 +0000.763674][2cdc] AppDeviceManagerStartMic update
aec type: 2
[000:100] [2025-08-25 05:35:47 +0000.763711][2cdc] AppDeviceManagerStartMic update
voiceChangeMode: 4
[000:100] [2025-08-25 05:35:47 +0000.763754][2cdc]
AudioDeviceDataHandler::setVoiceChangeMode, mode : 4
[000:100] [2025-08-25 05:35:47 +0000.763794][2cdc]
AudioDeviceDataHandler::StartMicProcess
[000:101] [2025-08-25 05:35:47 +0000.763931][2cdc] Try to start webrtc recording
device.
[000:101] [2025-08-25 05:35:47 +0000.763970][2cdc] StartRecording. threadID:11484
[000:101] [2025-08-25 05:35:47 +0000.763962][53e6] Error([Link]): Set the
pthread name failed with error:34 name:AudioDeviceDataHandler gapProcessThread
[000:101] [2025-08-25 05:35:47 +0000.764068][53e6] haveEnoughProcessedData
[Link]: 0
[000:101] [2025-08-25 05:35:47 +0000.764380][2cdc] The machine model:220333QAG
[000:101] [2025-08-25 05:35:47 +0000.764443][2cdc] default mode: Set the recording
mode to voice communication to enable HW AEC .
[000:101] [2025-08-25 05:35:47 +0000.764480][2cdc] Set the recording mode before
getSetting: 4
[000:101] [2025-08-25 05:35:47 +0000.764527][2cdc] Set the recording mode after
getSetting: 1
[000:137] [2025-08-25 05:35:47 +0000.800762][2cdc] StartRecording finished.
[000:138] [2025-08-25 05:35:47 +0000.800841][2cdc] audio: start the audio mic
checker timer.
[000:138] [2025-08-25 05:35:47 +0000.801396][2cdc] machine model :redmi
[000:138] [2025-08-25 05:35:47 +0000.801451][2cdc] Support this machine
model :redmi
[000:143] [2025-08-25 05:35:47 +0000.805904][2cdc] global inited! current sdk
version: 12-14-d8558ab
[000:203] [2025-08-25 05:35:47 +0000.866639][53e7] webrtc device:Handle the data
from samplesPerSec recording sample rate:48000 nSamples:480 nBytesPerSample:#
nChannels:#
[000:203] [2025-08-25 05:35:47 +0000.866758][53e7] _deviceSampleRate:48000
[000:208] [2025-08-25 05:35:47 +0000.870925][53e6] Run AGC when audioType = 0
[000:208] [2025-08-25 05:35:47 +0000.871051][53e6]
AudioDeviceDataHandler::MixAndSendOutFrame
[000:568] [2025-08-25 05:35:48 +0000.231277][2ed4]
Java_com_xiaomi_recordmediaprocess_OpenGlRender_SetCurrentGLContextJni:
[000:568] [2025-08-25 05:35:48 +0000.231482][53e2] MediaFilterCamera, recording
file context:0x785a90e180 input texture:16
[000:568] [2025-08-25 05:35:48 +0000.231536][53e2] GLESContext:
[000:568] [2025-08-25 05:35:48 +0000.231645][53e2] The result of eglGetDisplay is:
0x1
[000:578] [2025-08-25 05:35:48 +0000.241130][53e2] The result of creation:
0x786826eb80
[000:578] [2025-08-25 05:35:48 +0000.241287][53e2] The result of
eglCreatePbufferSurface is: 0x786826ec80
[000:578] [2025-08-25 05:35:48 +0000.241418][2ed4]
Java_com_xiaomi_recordmediaprocess_OpenGlRender_SetCurrentGLContextJni:
g_eglcontext: 0x785a90e180 input_texture: 16
[001:837] [2025-08-25 05:35:49 +0000.500264][53e6] haveEnoughProcessedData
[Link]: 0
[002:204] [2025-08-25 05:35:49 +0000.867596][53e6] Run AGC when audioType = 0
[003:555] [2025-08-25 05:35:51 +0000.218734][53e6] haveEnoughProcessedData
[Link]: 0
[003:934] [2025-08-25 05:35:51 +0000.597007][2cdc]
Java_com_xiaomi_recordmediaprocess_MediaEffectCamera_DestructMediaEffectCameraJni:
[003:934] [2025-08-25 05:35:51 +0000.597381][2cdc] ~MediaFilterCamera
time:203704254 enter.
[003:934] [2025-08-25 05:35:51 +0000.597424][2cdc] StopPullFrameAndWriteMp4
time:203704254 enter.
[003:935] [2025-08-25 05:35:51 +0000.598177][53e1] stop recording
[003:935] [2025-08-25 05:35:51 +0000.598283][53e1] we have stopped recording before
[003:938] [2025-08-25 05:35:51 +0000.601800][2cdc] StopPullFrameAndWriteMp4 leave.
expire time = 5 ms
[003:939] [2025-08-25 05:35:51 +0000.602502][2cdc] DestroyPipelineAndFilters
time:203704259 enter.
[003:939] [2025-08-25 05:35:51 +0000.602582][2cdc] DestroyPipelineAndFilters
leave. expire time = 0 ms
[003:939] [2025-08-25 05:35:51 +0000.602676][2cdc] AppDeviceManagerStopMic
[003:939] [2025-08-25 05:35:51 +0000.602807][2cdc] AppDeviceManagerStopMic::mic
status is on
[003:940] [2025-08-25 05:35:51 +0000.602973][2cdc] Try to stop webrtc device.
[003:940] [2025-08-25 05:35:51 +0000.603010][2cdc] Set record state to
[Link]
[003:977] [2025-08-25 05:35:51 +0000.640164][2cdc] Try to destory the
[Link]
[004:138] [2025-08-25 05:35:51 +0000.801277][53dd]
monitorTime:4000totalDuration:3740
[004:177] [2025-08-25 05:35:51 +0000.840356][2cdc] DestroyAudioRecorder:
[004:177] [2025-08-25 05:35:51 +0000.840529][2cdc] Cleanup the buffer queue in the
recorder.
[004:177] [2025-08-25 05:35:51 +0000.840560][2cdc] Destroy the recorder.
[004:178] [2025-08-25 05:35:51 +0000.841506][2cdc] StopRecording finished.
[004:178] [2025-08-25 05:35:51 +0000.841597][2cdc] The stop recording success.
[004:178] [2025-08-25 05:35:51 +0000.841654][2cdc]
AudioDeviceDataHandler::StopMicProcess
[004:184] [2025-08-25 05:35:51 +0000.847126][2cdc] AppDeviceManager stop.
[004:184] [2025-08-25 05:35:51 +0000.847459][2cdc] Rlease the webrtc device object.
[004:185] [2025-08-25 05:35:51 +0000.848470][2cdc] OpenSlesInput destruct.
[004:185] [2025-08-25 05:35:51 +0000.848617][2cdc] OpenSlesOutput destruct.
[004:190] [2025-08-25 05:35:51 +0000.853827][2cdc] EventDispatchServerScope
destruct
[004:191] [2025-08-25 05:35:51 +0000.854018][2cdc]
Warning([Link]): PhysicalSocketServer destruct
[004:191] [2025-08-25 05:35:51 +0000.854136][2cdc] ~AudioDeviceDataHandler
[004:192] [2025-08-25 05:35:51 +0000.855308][2cdc] AppDeviceManagerDestruct.
[004:192] [2025-08-25 05:35:51 +0000.855423][2cdc] ~AppDeviceManager:
[004:192] [2025-08-25 05:35:51 +0000.855573][2cdc] ~CpuOverloadDetect
time:203704512 enter.
[004:193] [2025-08-25 05:35:51 +0000.856075][2cdc] ~CpuOverloadDetect leave.
expire time = 1 ms
[004:196] [2025-08-25 05:35:51 +0000.859264][2cdc] Destruct BeautifyReader begin...
[004:196] [2025-08-25 05:35:51 +0000.859429][2cdc] Destruct BeautifyReader done.
[004:196] [2025-08-25 05:35:51 +0000.859493][2cdc] ~MediaFilterCamera leave.
expire time = 262 ms
[004:196] [2025-08-25 05:35:51 +0000.859796][2cdc] ~GLESContext:
[004:198] [2025-08-25 05:35:51 +0000.861497][2cdc] GLESContext destruct finish.
[004:198] [2025-08-25 05:35:51 +0000.861621][2cdc] ~RecordingSessionInternalSimple:
RecordingSessionInternalSimple::~RecordingSessionInternalSimple
[004:201] [2025-08-25 05:35:51 +0000.864801][2cdc] global uninited!
[004:204] [2025-08-25 05:35:51 +0000.867295][2cdc] clear AppID 50011
[004:204] [2025-08-25 05:35:51 +0000.867424][2cdc] UnRegister JVM for Xplatform
util
[004:204] [2025-08-25 05:35:51 +0000.867465][2cdc] Dispose::unregister webrtc video
engine
[004:204] [2025-08-25 05:35:51 +0000.867493][2cdc] Init the android object with
jvm:0x0 env:0x0 context:0x0
[004:204] [2025-08-25 05:35:51 +0000.867530][2cdc] SetAndroidMediaCodecObjects
time:203704524 enter.
[004:204] [2025-08-25 05:35:51 +0000.867563][2cdc] ClearAndroidMediaCodecObjects
time:203704524 enter.
[004:204] [2025-08-25 05:35:51 +0000.867603][2cdc] ClearAndroidMediaCodecObjects
leave. expire time = 0 ms
[004:204] [2025-08-25 05:35:51 +0000.867634][2cdc] SetAndroidMediaCodecObjects
leave. expire time = 0 ms
[004:204] [2025-08-25 05:35:51 +0000.867667][2cdc] SetAndroidMediaCodecObjects
time:203704524 enter.
[004:204] [2025-08-25 05:35:51 +0000.867698][2cdc] SetAndroidMediaCodecObjects:
SetAndroidMediaCodecObjects:: jvm :0x0
[004:204] [2025-08-25 05:35:51 +0000.867729][2cdc] ClearAndroidMediaCodecObjects
time:203704524 enter.
[004:205] [2025-08-25 05:35:51 +0000.867945][2cdc] ClearAndroidMediaCodecObjects
leave. expire time = 1 ms
[004:205] [2025-08-25 05:35:51 +0000.868060][2cdc] SetAndroidMediaCodecObjects:
SetAndroidMediaCodecObjects failed
[004:205] [2025-08-25 05:35:51 +0000.868100][2cdc] SetAndroidMediaCodecObjects
leave. expire time = 1 ms
[004:205] [2025-08-25 05:35:51 +0000.868169][2cdc] Dispose::unregister